User Preferences

Timezone
Units
Lat/Lon format
Defaults

Geo and time bounds

271 - GREEN BEACH OFFSHORE, CA   Notice:06/25/2024 Data hold: wave, sst,Buoy and mooring cleaned. Mobile View
1488 records
Date
(PDT)
Hs
(ft)
Tp
(s)
Dp
(deg)
Ta
(s)
SST
(F)
Air temp
(F)
Current sp
(kt)
Current dir
(deg)
2023-08-31 16:30 2.23 20.00 183 6.67 72.9 70.5 0.16 137.0
2023-08-31 16:00 2.36 10.00 197 6.81 72.9 70.7 0.16 98.0
2023-08-31 15:30 2.26 11.76 193 6.68 72.9 70.3 0.16 145.0
2023-08-31 15:00 2.20 11.76 184 6.54 73.2 70.2 0.04 134.0
2023-08-31 14:30 2.20 11.76 183 6.40 72.9 70.2 0.06 226.0
2023-08-31 14:00 2.17 11.11 192 6.37 72.3 69.6 0.14 261.0
2023-08-31 13:30 2.26 11.11 184 6.07 72.0 69.8 0.12 245.0
2023-08-31 13:00 2.30 11.11 201 5.34 71.6 69.8 0.12 225.0
2023-08-31 12:30 2.40 11.11 194 5.70 71.6 69.4 0.08 270.0
2023-08-31 12:00 2.40 11.76 188 6.06 71.6 69.1 0.10 251.0
2023-08-31 11:30 2.53 11.11 193 7.05 71.6 68.5 0.08 235.0
2023-08-31 11:00 2.40 11.76 190 7.28 71.6 68.4 0.04 212.0
2023-08-31 10:30 2.23 11.76 183 7.63 71.6 68.2 0.04 226.0
2023-08-31 10:00 2.40 11.76 190 8.14 71.6 67.8 0.08 255.0
2023-08-31 09:30 2.30 11.11 199 7.84 71.4 68.0 0.10 208.0
2023-08-31 09:00 2.46 11.76 213 8.19 71.4 67.6 0.14 190.0
2023-08-31 08:30 2.36 11.76 194 7.90 71.4 67.6 0.12 217.0
2023-08-31 08:00 2.46 11.76 212 8.02 71.4 67.6 0.23 198.0
2023-08-31 07:30 2.36 11.76 217 7.65 71.4 67.3 0.23 200.0
2023-08-31 07:00 2.33 11.76 196 7.61 71.4 68.0 0.35 201.0
2023-08-31 06:30 2.20 10.53 185 7.06 71.4 68.2 0.35 188.0
2023-08-31 06:00 2.23 11.76 204 7.19 71.4 68.5 0.35 179.0
2023-08-31 05:30 2.20 10.53 189 7.26 71.6 68.5 0.35 179.0
2023-08-31 05:00 2.26 10.53 191 7.05 71.6 68.5 0.39 171.0
2023-08-31 04:30 2.30 10.53 191 7.29 71.6 68.5 0.31 163.0
2023-08-31 04:00 2.17 10.53 196 7.39 71.8 68.7 0.37 162.0
2023-08-31 03:30 2.07 11.11 193 6.87 71.8 68.7 0.35 169.0
2023-08-31 03:00 2.10 10.53 185 6.79 71.8 68.9 0.39 158.0
2023-08-31 02:30 2.07 12.50 190 6.75 71.8 69.1 0.33 164.0
2023-08-31 02:00 2.46 12.50 188 7.29 71.8 69.3 0.37 166.0
2023-08-31 01:30 2.26 11.11 187 6.57 71.8 69.6 0.37 165.0
2023-08-31 01:00 2.49 11.11 188 7.08 71.8 69.6 0.35 154.0
2023-08-31 00:30 2.43 11.11 186 6.80 72.0 69.8 0.37 141.0
2023-08-31 00:00 2.56 11.11 184 7.23 72.0 69.4 0.39 140.0
2023-08-30 23:30 2.40 12.50 186 6.81 72.0 69.6 0.35 151.0
2023-08-30 23:00 2.46 11.11 185 7.12 72.0 70.0 0.43 132.0
2023-08-30 22:30 2.49 11.11 180 7.12 72.0 70.3 0.37 125.0
2023-08-30 22:00 2.46 12.50 180 7.08 72.0 70.3 0.39 121.0
2023-08-30 21:30 2.36 11.76 176 6.73 72.1 70.5 0.39 123.0
2023-08-30 21:00 2.59 12.50 173 6.93 72.0 70.3 0.43 131.0
2023-08-30 20:30 2.46 8.70 181 6.51 72.0 70.2 0.45 136.0
2023-08-30 20:00 2.66 12.50 181 6.77 72.0 70.2 0.47 139.0
2023-08-30 19:30 2.53 9.09 178 6.35 72.1 70.2 0.43 126.0
2023-08-30 19:00 2.46 11.11 179 6.08 72.0 70.3 0.39 133.0
2023-08-30 18:30 2.85 9.09 183 6.82 72.1 70.5 0.47 133.0
2023-08-30 18:00 2.59 9.52 177 6.15 72.1 70.7 0.43 133.0
2023-08-30 17:30 2.59 9.52 186 6.13 72.1 71.1 0.41 126.0
2023-08-30 17:00 2.53 9.52 176 6.06 72.1 70.7 0.45 127.0
2023-08-30 16:30 2.76 12.50 182 6.03 72.1 70.9 0.43 129.0
2023-08-30 16:00 2.82 11.76 174 6.20 72.1 71.1 0.43 127.0
2023-08-30 15:30 2.82 12.50 178 6.31 72.0 71.1 0.39 138.0
2023-08-30 15:00 2.79 12.50 180 6.15 71.8 71.1 0.52 140.0
2023-08-30 14:30 2.69 12.50 177 6.16 71.6 71.1 0.51 125.0
2023-08-30 14:00 2.95 9.52 184 6.61 71.2 70.9 0.51 138.0
2023-08-30 13:30 2.79 9.09 199 6.15 70.9 70.5 0.51 134.0
2023-08-30 13:00 2.99 9.52 192 6.44 70.5 0.56 141.0
2023-08-30 12:30 2.92 11.76 172 6.53 70.5 68.2 0.56 133.0
2023-08-30 12:00 2.69 12.50 175 6.52 70.3 67.5 0.60 132.0
2023-08-30 11:30 2.66 12.50 172 6.70 70.3 67.5 0.68 123.0
2023-08-30 11:00 2.66 12.50 174 6.85 69.1 68.9 0.56 114.0
2023-08-30 10:30 2.79 11.76 172 7.26 68.7 68.5 0.54 116.0
2023-08-30 10:00 2.85 12.50 169 7.32 68.2 68.4 0.52 120.0
2023-08-30 09:30 2.89 12.50 170 7.41 68.0 67.6 0.43 119.0
2023-08-30 09:00 2.95 12.50 171 7.50 66.9 66.6 0.43 123.0
2023-08-30 08:30 2.99 10.00 167 7.54 66.2 66.6 0.41 123.0
2023-08-30 08:00 2.92 9.52 171 7.47 66.0 66.4 0.43 130.0
2023-08-30 07:30 3.02 9.52 172 7.14 66.2 65.7 0.37 146.0
2023-08-30 07:00 2.95 10.53 173 7.38 66.2 64.8 0.39 160.0
2023-08-30 06:30 2.79 10.53 173 7.35 66.2 0.49 140.0
2023-08-30 06:00 2.49 11.11 178 6.88 66.4 0.49 146.0
2023-08-30 05:30 2.56 12.50 179 7.55 66.4 0.49 141.0
2023-08-30 05:00 2.92 12.50 178 7.80 66.4 63.9 0.47 142.0
2023-08-30 04:30 2.69 12.50 178 7.45 66.4 64.0 0.49 143.0
2023-08-30 04:00 2.85 10.00 175 7.63 66.6 64.6 0.52 147.0
2023-08-30 03:30 2.82 10.00 175 7.56 66.7 65.7 0.52 145.0
2023-08-30 03:00 2.76 10.00 177 7.42 66.9 65.7 0.54 142.0
2023-08-30 02:30 2.85 11.76 178 7.56 67.1 65.7 0.51 144.0
2023-08-30 02:00 2.89 10.53 177 7.64 67.3 65.5 0.60 144.0
2023-08-30 01:30 2.79 12.50 177 7.74 67.6 65.8 0.60 151.0
2023-08-30 01:00 3.05 9.52 186 7.84 67.8 66.0 0.68 155.0
2023-08-30 00:30 3.08 13.33 174 7.71 68.0 66.0 0.68 148.0
2023-08-30 00:00 2.99 13.33 173 7.90 68.2 66.2 0.72 150.0
2023-08-29 23:30 3.08 13.33 168 7.96 68.4 67.6 0.66 153.0
2023-08-29 23:00 3.08 12.50 175 7.93 68.7 67.6 0.66 153.0
2023-08-29 22:30 3.31 10.00 185 8.47 69.1 67.6 0.80 152.0
2023-08-29 22:00 3.12 12.50 167 8.19 69.3 68.0 0.84 153.0
2023-08-29 21:30 3.02 13.33 176 7.89 69.6 68.2 0.93 152.0
2023-08-29 21:00 3.28 13.33 165 8.26 69.6 69.4 0.97 155.0
2023-08-29 20:30 3.22 13.33 168 7.73 70.2 70.2 1.11 149.0
2023-08-29 20:00 3.35 10.00 167 7.69 70.2 70.5 1.05 151.0
2023-08-29 19:30 3.28 13.33 170 7.65 70.5 70.9 1.11 153.0
2023-08-29 19:00 3.05 13.33 169 7.92 70.5 71.6 1.19 153.0
2023-08-29 18:30 3.08 12.50 169 7.92 70.5 72.3 1.11 149.0
2023-08-29 18:00 3.12 13.33 171 8.08 71.6 72.5 1.22 150.0
2023-08-29 17:30 2.79 13.33 176 7.29 71.2 72.5 1.15 144.0
2023-08-29 17:00 3.12 11.76 177 7.80 71.6 72.7 1.13 143.0
2023-08-29 16:30 2.85 10.53 175 7.62 69.8 73.0 0.93 139.0
2023-08-29 16:00 3.02 10.00 171 7.70 70.9 73.0 0.93 138.0
2023-08-29 15:30 2.69 10.53 175 7.40 70.9 72.9 1.09 136.0
2023-08-29 15:00 2.82 13.33 165 7.36 71.1 72.7 0.97 141.0
2023-08-29 14:30 2.79 10.00 174 7.48 71.6 72.5 0.84 139.0
2023-08-29 14:00 2.72 13.33 169 7.52 71.6 72.0 0.86 135.0
2023-08-29 13:30 2.72 10.00 178 7.56 71.4 71.4 0.86 134.0
2023-08-29 13:00 2.82 13.33 168 7.81 70.5 70.3 0.82 134.0
2023-08-29 12:30 2.76 11.76 169 7.80 71.6 69.3 0.84 127.0
2023-08-29 12:00 2.72 13.33 169 7.82 71.4 68.7 0.80 128.0
2023-08-29 11:30 2.56 13.33 174 7.47 69.8 67.5 0.78 123.0
2023-08-29 11:00 2.66 13.33 164 7.82 67.8 66.4 0.74 127.0
2023-08-29 10:30 2.46 13.33 170 7.28 67.1 65.5 0.68 128.0
2023-08-29 10:00 2.59 13.33 168 7.81 65.5 62.2 0.78 118.0
2023-08-29 09:30 2.76 14.29 172 8.23 65.5 0.66 115.0
2023-08-29 09:00 2.62 13.33 171 8.03 66.0 61.7 0.64 111.0
2023-08-29 08:30 2.66 14.29 171 8.07 64.8 62.4 0.58 112.0
2023-08-29 08:00 2.82 14.29 172 8.48 64.2 62.4 0.49 111.0
2023-08-29 07:30 2.46 14.29 178 7.70 64.0 62.8 0.37 119.0
2023-08-29 07:00 2.30 14.29 181 7.23 64.0 62.6 0.31 129.0
2023-08-29 06:30 2.46 13.33 177 7.64 63.9 62.6 0.33 137.0
2023-08-29 06:00 2.30 13.33 177 7.42 64.0 62.2 0.39 139.0
2023-08-29 05:30 2.17 14.29 178 7.22 64.0 62.2 0.35 142.0
2023-08-29 05:00 2.23 13.33 172 7.24 64.0 62.6 0.33 146.0
2023-08-29 04:30 2.40 13.33 175 7.79 64.2 62.6 0.37 131.0
2023-08-29 04:00 2.30 14.29 180 7.33 64.2 63.1 0.39 141.0
2023-08-29 03:30 2.20 14.29 180 7.21 64.4 62.8 0.41 150.0
2023-08-29 03:00 2.40 14.29 175 7.69 64.4 63.0 0.47 145.0
2023-08-29 02:30 2.40 14.29 176 7.70 64.4 63.0 0.49 141.0
2023-08-29 02:00 2.17 14.29 178 7.09 64.6 63.5 0.58 144.0
2023-08-29 01:30 1.97 13.33 176 6.80 64.8 64.8 0.56 158.0
2023-08-29 01:00 2.26 14.29 177 7.32 64.8 64.2 0.62 160.0
2023-08-29 00:30 2.13 14.29 182 7.09 65.1 64.2 0.66 158.0
2023-08-29 00:00 2.20 14.29 183 7.02 65.5 64.6 0.60 162.0
2023-08-28 23:30 2.30 14.29 174 7.09 66.0 65.7 0.74 169.0
2023-08-28 23:00 2.17 14.29 173 6.53 66.0 65.7 0.84 168.0
2023-08-28 22:30 2.36 14.29 173 7.04 66.4 66.2 0.87 163.0
2023-08-28 22:00 2.30 14.29 175 6.86 66.7 66.4 0.99 164.0
2023-08-28 21:30 2.07 14.29 154 6.66 66.9 66.4 1.05 160.0
2023-08-28 21:00 2.33 12.50 179 7.67 66.4 66.4 1.13 161.0
2023-08-28 20:30 2.20 14.29 168 7.15 66.7 66.9 1.15 162.0
2023-08-28 20:00 2.30 14.29 161 7.20 67.8 67.6 1.21 160.0
2023-08-28 19:30 2.33 14.29 162 6.92 68.9 68.7 1.28 157.0
2023-08-28 19:00 2.46 14.29 166 6.78 70.3 70.7 1.40 160.0
2023-08-28 18:30 2.46 14.29 167 6.63 70.5 72.0 1.48 155.0
2023-08-28 18:00 2.17 14.29 163 5.84 70.5 71.6 1.48 156.0
2023-08-28 17:30 2.46 14.29 169 6.51 70.2 71.8 1.46 154.0
2023-08-28 17:00 2.36 13.33 173 6.51 70.5 72.5 1.56 147.0
2023-08-28 16:30 2.30 14.29 160 6.17 70.9 72.3 1.52 148.0
2023-08-28 16:00 2.23 14.29 166 5.74 70.5 72.1 1.54 142.0
2023-08-28 15:30 2.40 14.29 166 6.49 69.6 72.0 1.32 144.0
2023-08-28 15:00 2.23 14.29 165 6.40 69.1 72.0 1.19 139.0
2023-08-28 14:30 2.20 12.50 171 7.11 68.0 71.8 1.01 134.0
2023-08-28 14:00 2.20 14.29 170 6.58 66.9 70.9 0.93 137.0
2023-08-28 13:30 2.17 13.33 174 6.57 67.8 69.8 0.82 143.0
2023-08-28 13:00 2.46 14.29 168 7.01 68.7 69.6 0.82 148.0
2023-08-28 12:30 2.33 14.29 170 6.57 67.3 68.5 0.82 151.0
2023-08-28 12:00 2.30 14.29 171 6.61 66.6 68.2 0.76 146.0
2023-08-28 11:30 2.30 14.29 175 7.13 65.8 67.3 0.74 153.0
2023-08-28 11:00 2.36 14.29 170 7.07 65.1 66.2 0.64 157.0
2023-08-28 10:30 2.33 14.29 170 7.09 64.4 65.8 0.76 153.0
2023-08-28 10:00 2.17 14.29 170 6.63 63.9 64.8 0.56 160.0
2023-08-28 09:30 2.23 15.38 171 6.98 63.1 64.2 0.66 164.0
2023-08-28 09:00 2.23 13.33 176 6.78 62.2 63.5 0.60 156.0
2023-08-28 08:30 2.26 15.38 173 6.78 62.1 62.8 0.51 156.0
2023-08-28 08:00 2.20 14.29 174 6.63 61.3 62.6 0.39 165.0
2023-08-28 07:30 2.17 15.38 171 6.27 61.0 62.4 0.54 156.0
2023-08-28 07:00 2.40 15.38 171 6.83 61.2 61.9 0.52 154.0
2023-08-28 06:30 2.10 14.29 167 6.34 61.2 61.2 0.49 150.0
2023-08-28 06:00 2.00 15.38 171 6.11 61.0 61.0 0.27 144.0
2023-08-28 05:30 2.10 13.33 175 6.25 61.2 61.3 0.33 146.0
2023-08-28 05:00 2.00 14.29 170 5.97 61.2 62.1 0.25 154.0
2023-08-28 04:30 1.97 15.38 173 5.65 61.3 61.9 0.17 143.0
2023-08-28 04:00 2.33 15.38 173 6.84 61.3 62.1 0.19 157.0
2023-08-28 03:30 2.43 15.38 172 6.59 61.3 62.2 0.12 155.0
2023-08-28 03:00 2.26 14.29 175 6.32 61.5 62.4 0.17 135.0
2023-08-28 02:30 2.26 15.38 173 6.54 61.7 62.6 0.12 136.0
2023-08-28 02:00 2.40 15.38 174 6.94 61.7 62.6 0.04 195.0
2023-08-28 01:30 2.26 15.38 177 6.45 61.7 64.0 0.14 188.0
2023-08-28 01:00 2.33 14.29 176 6.01 61.5 63.9 0.19 224.0
2023-08-28 00:30 2.36 14.29 174 5.64 61.2 64.4 0.23 199.0
2023-08-28 00:00 2.40 15.38 172 5.54 61.7 62.8 0.54 168.0
2023-08-27 23:30 2.49 15.38 168 5.57 62.2 62.2 0.76 169.0
2023-08-27 23:00 2.53 15.38 176 5.22 62.6 62.8 0.87 163.0
2023-08-27 22:30 2.56 14.29 182 4.85 63.0 63.9 0.99 170.0
2023-08-27 22:00 2.82 15.38 168 4.87 63.1 64.9 0.97 165.0
2023-08-27 21:30 2.92 14.29 169 4.77 63.3 63.7 1.05 163.0
2023-08-27 21:00 3.18 15.38 170 4.78 63.5 66.6 1.11 166.0
2023-08-27 20:30 3.15 13.33 177 4.49 63.5 67.3 1.09 167.0
2023-08-27 20:00 3.25 15.38 164 4.17 63.7 67.8 1.09 162.0
2023-08-27 19:30 3.08 15.38 174 4.22 63.7 68.0 1.07 158.0
2023-08-27 19:00 2.82 13.33 177 4.22 64.0 68.2 0.97 152.0
2023-08-27 18:30 2.59 13.33 166 3.86 64.8 68.5 1.17 149.0
2023-08-27 18:00 2.72 13.33 170 4.15 65.1 68.7 1.19 149.0
2023-08-27 17:30 2.69 15.38 176 4.16 65.3 68.9 1.19 144.0
2023-08-27 17:00 2.72 14.29 169 4.32 65.8 69.1 1.11 147.0
2023-08-27 16:30 2.76 13.33 186 4.21 65.8 68.9 0.97 150.0
2023-08-27 16:00 2.89 14.29 167 4.47 65.7 68.9 0.91 148.0
2023-08-27 15:30 2.72 13.33 185 4.44 65.7 68.7 0.76 146.0
2023-08-27 15:00 2.79 13.33 178 4.51 65.3 68.2 0.58 147.0
2023-08-27 14:30 2.76 14.29 175 4.54 65.3 67.8 0.45 147.0
2023-08-27 14:00 2.82 14.29 170 5.05 65.5 67.6 0.39 142.0
2023-08-27 13:30 2.59 14.29 168 4.96 66.0 67.5 0.41 134.0
2023-08-27 13:00 2.62 13.33 174 4.87 64.9 66.7 0.43 104.0
2023-08-27 12:30 2.69 14.29 174 5.10 66.2 66.7 0.33 102.0
2023-08-27 12:00 2.85 13.33 175 5.23 66.4 66.9 0.33 84.0
2023-08-27 11:30 2.72 13.33 178 5.04 66.0 66.4 0.25 81.0
2023-08-27 11:00 2.72 14.29 173 5.07 64.9 65.1 0.23 86.0
2023-08-27 10:30 2.69 14.29 175 5.13 64.6 64.4 0.16 84.0
2023-08-27 10:00 2.76 14.29 172 5.43 63.7 63.9 0.19 83.0
2023-08-27 09:30 2.43 14.29 176 4.92 63.5 63.5 0.17 72.0
2023-08-27 09:00 2.49 13.33 179 5.25 63.0 62.8 0.16 77.0
2023-08-27 08:30 2.46 14.29 183 5.40 62.6 62.6 0.16 60.0
2023-08-27 08:00 2.62 14.29 179 5.70 62.4 61.5 0.06 55.0
2023-08-27 07:30 2.40 14.29 175 5.27 62.4 62.1 0.12 346.0
2023-08-27 07:00 2.56 14.29 177 5.27 62.2 61.5 0.19 11.0
2023-08-27 06:30 2.49 14.29 191 5.25 62.2 61.5 0.19 358.0
2023-08-27 06:00 2.59 14.29 183 5.78 62.2 61.7 0.16 327.0
2023-08-27 05:30 2.53 14.29 182 5.58 62.2 62.6 0.14 327.0
2023-08-27 05:00 2.56 14.29 184 5.54 62.2 63.0 0.16 305.0
2023-08-27 04:30 2.43 14.29 179 5.38 62.2 61.9 0.17 284.0
2023-08-27 04:00 2.66 14.29 183 5.77 62.4 62.1 0.12 297.0
2023-08-27 03:30 2.40 14.29 188 5.23 62.4 62.2 0.19 244.0
2023-08-27 03:00 2.46 14.29 185 5.29 62.6 61.9 0.12 226.0
2023-08-27 02:30 2.62 14.29 184 5.46 62.6 61.9 0.25 204.0
2023-08-27 02:00 2.56 14.29 188 5.29 62.8 62.6 0.17 202.0
2023-08-27 01:30 2.53 15.38 183 5.19 62.8 63.0 0.19 212.0
2023-08-27 01:00 2.43 14.29 194 4.92 62.8 63.3 0.17 193.0
2023-08-27 00:30 2.53 14.29 183 4.95 63.0 63.3 0.25 203.0
2023-08-27 00:00 2.62 14.29 195 4.89 63.1 63.7 0.25 206.0
2023-08-26 23:30 2.62 14.29 191 4.87 63.1 63.7 0.29 203.0
2023-08-26 23:00 2.79 14.29 192 5.04 63.3 64.0 0.14 197.0
2023-08-26 22:30 2.62 14.29 186 4.45 63.3 64.6 0.16 197.0
2023-08-26 22:00 2.66 14.29 186 4.82 63.7 64.9 0.23 186.0
2023-08-26 21:30 2.79 15.38 182 4.64 63.7 64.9 0.23 172.0
2023-08-26 21:00 2.89 15.38 184 4.71 64.0 64.8 0.31 186.0
2023-08-26 20:30 3.02 14.29 186 5.11 64.2 65.3 0.25 188.0
2023-08-26 20:00 3.02 14.29 186 4.54 64.4 65.1 0.25 183.0
2023-08-26 19:30 3.08 14.29 180 4.79 64.6 65.8 0.35 172.0
2023-08-26 19:00 3.25 14.29 179 4.68 64.9 66.6 0.19 189.0
2023-08-26 18:30 3.31 14.29 175 4.48 65.3 67.3 0.23 156.0
2023-08-26 18:00 3.31 15.38 170 4.52 65.8 67.8 0.35 152.0
2023-08-26 17:30 3.22 15.38 174 4.59 66.0 67.6 0.31 149.0
2023-08-26 17:00 2.99 15.38 181 4.28 66.2 67.8 0.25 142.0
2023-08-26 16:30 3.15 15.38 175 4.45 66.4 68.0 0.17 129.0
2023-08-26 16:00 2.82 15.38 177 3.99 66.6 67.8 0.19 125.0
2023-08-26 15:30 2.72 15.38 171 4.04 66.9 67.8 0.10 157.0
2023-08-26 15:00 2.92 15.38 177 4.89 67.1 67.6 0.06 155.0
2023-08-26 14:30 2.53 15.38 177 4.60 67.1 67.5 0.12 143.0
2023-08-26 14:00 2.49 15.38 177 4.99 67.3 67.3 0.10 134.0
2023-08-26 13:30 2.26 15.38 179 5.03 67.1 67.5 0.10 128.0
2023-08-26 13:00 2.36 15.38 178 5.41 67.5 67.1 0.08 95.0
2023-08-26 12:30 2.13 15.38 185 5.08 67.1 66.6 0.02 340.0
2023-08-26 12:00 2.26 15.38 184 5.96 66.9 66.2 0.10 341.0
2023-08-26 11:30 2.30 15.38 184 6.64 66.9 64.6 0.12 302.0
2023-08-26 11:00 2.10 15.38 187 6.15 66.2 63.0 0.08 301.0
2023-08-26 10:30 2.23 15.38 187 6.56 66.0 61.0 0.08 299.0
2023-08-26 10:00 2.43 15.38 189 6.88 65.8 59.7 0.17 274.0
2023-08-26 09:30 2.17 15.38 189 6.39 65.5 60.8 0.16 302.0
2023-08-26 09:00 2.56 15.38 192 7.33 65.3 61.2 0.19 313.0
2023-08-26 08:30 2.59 15.38 187 7.33 64.8 61.3 0.14 310.0
2023-08-26 08:00 2.20 15.38 188 6.12 64.6 62.6 0.12 293.0
2023-08-26 07:30 2.53 15.38 189 7.10 64.4 61.9 0.17 312.0
2023-08-26 07:00 2.49 15.38 188 6.54 64.4 61.5 0.19 304.0
2023-08-26 06:30 2.30 15.38 188 6.19 64.0 61.0 0.21 326.0
2023-08-26 06:00 2.30 15.38 182 6.31 63.3 60.4 0.23 307.0
2023-08-26 05:30 2.13 15.38 194 5.84 63.1 60.8 0.33 270.0
2023-08-26 05:00 2.59 15.38 189 7.20 63.5 61.5 0.27 252.0
2023-08-26 04:30 2.43 15.38 190 6.46 63.7 62.8 0.33 236.0
2023-08-26 04:00 2.40 15.38 186 6.12 63.9 63.7 0.35 245.0
2023-08-26 03:30 2.49 15.38 182 6.45 64.4 64.6 0.39 228.0
2023-08-26 03:00 2.33 15.38 198 5.89 64.6 64.6 0.37 232.0
2023-08-26 02:30 2.59 15.38 198 6.04 64.8 63.7 0.41 233.0
2023-08-26 02:00 2.72 15.38 188 6.72 64.9 63.5 0.47 229.0
2023-08-26 01:30 2.79 15.38 192 6.82 65.1 63.3 0.45 223.0
2023-08-26 01:00 2.46 15.38 191 5.90 65.3 64.2 0.49 220.0
2023-08-26 00:30 2.56 16.67 182 5.84 65.5 64.4 0.39 220.0
2023-08-26 00:00 2.76 16.67 182 6.18 65.7 63.9 0.41 222.0
2023-08-25 23:30 2.92 15.38 194 6.23 65.8 63.9 0.45 221.0
2023-08-25 23:00 3.05 15.38 195 6.10 65.8 63.9 0.47 218.0
2023-08-25 22:30 3.02 16.67 191 5.79 66.0 64.0 0.37 220.0
2023-08-25 22:00 3.08 15.38 188 5.90 66.0 64.6 0.33 216.0
2023-08-25 21:30 3.08 16.67 191 5.91 65.8 64.8 0.43 220.0
2023-08-25 21:00 3.08 15.38 194 5.51 66.0 65.1 0.37 203.0
2023-08-25 20:30 3.22 16.67 187 5.73 66.2 65.3 0.45 202.0
2023-08-25 20:00 3.25 15.38 187 5.73 66.2 65.3 0.43 187.0
2023-08-25 19:30 3.05 15.38 187 5.43 66.2 66.4 0.47 177.0
2023-08-25 19:00 2.79 13.33 194 5.03 66.4 67.6 0.52 181.0
2023-08-25 18:30 3.08 16.67 185 5.34 66.2 68.2 0.49 176.0
2023-08-25 18:00 3.12 16.67 185 5.15 66.4 68.5 0.49 172.0
2023-08-25 17:30 3.15 16.67 179 4.81 66.4 68.5 0.47 166.0
2023-08-25 17:00 3.08 16.67 179 4.77 66.2 68.5 0.49 165.0
2023-08-25 16:30 3.18 16.67 171 4.56 66.0 68.2 0.49 159.0
2023-08-25 16:00 3.15 16.67 189 4.92 66.0 68.0 0.51 158.0
2023-08-25 15:30 2.95 16.67 179 5.01 66.0 68.2 0.47 154.0
2023-08-25 15:00 3.22 16.67 179 5.80 65.8 68.0 0.37 168.0
2023-08-25 14:30 2.92 16.67 178 5.27 65.7 67.6 0.35 179.0
2023-08-25 14:00 2.79 16.67 186 5.37 65.7 67.3 0.29 178.0
2023-08-25 13:30 2.95 16.67 179 6.03 65.7 66.7 0.31 168.0
2023-08-25 13:00 3.05 16.67 184 6.22 65.5 66.4 0.23 180.0
2023-08-25 12:30 2.79 16.67 183 5.72 65.3 66.2 0.16 166.0
2023-08-25 12:00 2.95 16.67 181 6.75 65.1 65.7 0.21 187.0
2023-08-25 11:30 2.79 16.67 176 6.22 64.9 65.3 0.25 187.0
2023-08-25 11:00 3.12 16.67 188 7.81 64.9 65.1 0.10 164.0
2023-08-25 10:30 2.59 16.67 192 6.78 64.8 65.1 0.19 222.0
2023-08-25 10:00 2.62 16.67 184 6.68 64.8 65.1 0.21 206.0
2023-08-25 09:30 2.79 16.67 184 7.16 64.6 64.4 0.12 221.0
2023-08-25 09:00 2.79 16.67 190 7.07 64.6 64.2 0.23 211.0
2023-08-25 08:30 2.56 16.67 174 6.06 64.8 64.0 0.27 206.0
2023-08-25 08:00 2.72 16.67 187 6.57 64.8 64.2 0.21 209.0
2023-08-25 07:30 2.82 16.67 179 7.36 64.8 64.0 0.23 216.0
2023-08-25 07:00 2.66 16.67 180 6.85 64.8 64.0 0.23 214.0
2023-08-25 06:30 2.92 16.67 179 7.49 64.9 64.0 0.25 202.0
2023-08-25 06:00 2.99 16.67 195 7.68 65.1 63.7 0.27 218.0
2023-08-25 05:30 3.02 16.67 182 7.99 65.3 63.3 0.25 201.0
2023-08-25 05:00 3.02 16.67 190 7.02 65.3 63.3 0.31 215.0
2023-08-25 04:30 3.12 16.67 189 7.73 65.5 62.6 0.35 212.0
2023-08-25 04:00 3.05 18.18 180 6.90 65.7 64.4 0.33 210.0
2023-08-25 03:30 3.41 16.67 187 7.48 65.8 64.4 0.27 221.0
2023-08-25 03:00 2.95 16.67 182 6.32 66.0 64.9 0.27 229.0
2023-08-25 02:30 3.35 16.67 194 7.22 66.2 65.3 0.27 226.0
2023-08-25 02:00 3.15 18.18 185 6.63 66.2 65.3 0.23 237.0
2023-08-25 01:30 3.08 18.18 190 6.18 66.4 65.3 0.17 228.0
2023-08-25 01:00 3.38 16.67 184 6.29 66.4 65.3 0.27 223.0
2023-08-25 00:30 3.48 18.18 183 6.77 66.7 65.5 0.29 230.0
2023-08-25 00:00 3.61 18.18 188 6.17 67.1 65.7 0.31 217.0
2023-08-24 23:30 3.51 18.18 183 6.16 67.3 65.8 0.33 232.0
2023-08-24 23:00 3.35 18.18 177 5.67 67.5 65.8 0.33 215.0
2023-08-24 22:30 3.64 18.18 186 5.80 67.8 66.2 0.23 201.0
2023-08-24 22:00 3.54 18.18 183 5.71 68.0 66.4 0.31 207.0
2023-08-24 21:30 3.94 18.18 179 6.24 68.2 66.4 0.29 213.0
2023-08-24 21:00 3.48 18.18 180 5.40 68.2 66.7 0.31 216.0
2023-08-24 20:30 3.48 18.18 183 5.46 68.5 66.7 0.29 204.0
2023-08-24 20:00 3.48 18.18 178 5.61 68.4 67.1 0.35 187.0
2023-08-24 19:30 3.44 18.18 173 6.22 68.2 67.3 0.25 169.0
2023-08-24 19:00 3.05 18.18 178 5.84 68.5 67.6 0.19 157.0
2023-08-24 18:30 3.41 18.18 184 7.01 68.2 68.2 0.08 195.0
2023-08-24 18:00 3.22 18.18 181 6.74 68.9 68.5 0.16 183.0
2023-08-24 17:30 2.85 18.18 181 5.80 68.0 68.7 0.04 309.0
2023-08-24 17:00 3.51 18.18 189 7.67 68.2 69.1 0.17 346.0
2023-08-24 16:30 3.35 18.18 177 7.10 68.4 68.7 0.21 333.0
2023-08-24 16:00 2.76 18.18 166 6.02 68.7 68.7 0.19 314.0
2023-08-24 15:30 2.72 18.18 164 5.97 68.7 68.4 0.19 312.0
2023-08-24 15:00 3.25 18.18 175 7.82 68.9 68.2 0.17 290.0
2023-08-24 14:30 2.92 18.18 183 6.69 68.7 67.8 0.25 306.0
2023-08-24 14:00 3.38 18.18 187 7.88 68.7 67.3 0.23 321.0
2023-08-24 13:30 2.99 18.18 166 6.95 68.5 67.1 0.14 290.0
2023-08-24 13:00 3.15 18.18 179 7.28 68.5 66.9 0.17 299.0
2023-08-24 12:30 2.89 18.18 181 7.34 68.4 66.9 0.23 323.0
2023-08-24 12:00 3.48 18.18 179 9.16 68.2 66.9 0.19 328.0
2023-08-24 11:30 3.05 18.18 191 8.27 68.0 66.6 0.29 324.0
2023-08-24 11:00 2.92 18.18 174 8.13 67.8 66.9 0.23 325.0
2023-08-24 10:30 3.08 18.18 183 8.59 67.5 66.7 0.27 341.0
2023-08-24 10:00 3.08 18.18 172 8.29 67.1 66.7 0.39 347.0
2023-08-24 09:30 2.99 18.18 184 8.13 66.9 66.6 0.43 346.0
2023-08-24 09:00 3.18 18.18 190 8.47 66.7 66.4 0.47 333.0
2023-08-24 08:30 2.99 18.18 188 7.61 66.6 66.2 0.49 329.0
2023-08-24 08:00 3.15 18.18 184 7.33 66.6 66.0 0.47 319.0
2023-08-24 07:30 3.22 20.00 181 7.74 66.7 66.0 0.51 320.0
2023-08-24 07:00 3.15 18.18 184 7.36 67.1 66.0 0.68 319.0
2023-08-24 06:30 3.05 14.29 199 6.88 67.3 65.8 0.45 333.0
2023-08-24 06:00 2.95 18.18 186 6.52 67.5 65.5 0.76 319.0
2023-08-24 05:30 3.12 12.50 200 6.51 67.5 65.7 0.80 315.0
2023-08-24 05:00 3.08 13.33 197 6.06 67.5 65.8 0.72 318.0
2023-08-24 04:30 3.12 13.33 199 6.12 67.3 66.2 0.70 320.0
2023-08-24 04:00 3.25 20.00 185 6.37 67.1 66.2 0.62 319.0
2023-08-24 03:30 3.58 20.00 185 7.04 66.6 66.2 0.41 323.0
2023-08-24 03:00 3.51 14.29 193 6.62 66.4 66.4 0.60 321.0
2023-08-24 02:30 3.35 20.00 175 6.61 66.0 66.4 0.62 320.0
2023-08-24 02:00 3.44 20.00 187 6.99 65.8 66.6 0.66 313.0
2023-08-24 01:30 3.38 14.29 197 6.86 66.7 66.7 0.66 302.0
2023-08-24 01:00 3.25 20.00 182 6.69 67.1 67.1 0.51 295.0
2023-08-24 00:30 3.41 13.33 199 6.81 67.1 67.1 0.62 289.0
2023-08-24 00:00 3.38 13.33 200 6.36 67.1 67.3 0.47 299.0
2023-08-23 23:30 3.54 13.33 192 7.06 66.7 66.9 0.27 297.0
2023-08-23 23:00 3.67 13.33 195 7.19 66.6 66.9 0.58 287.0
2023-08-23 22:30 3.41 13.33 195 6.58 66.7 66.6 0.51 280.0
2023-08-23 22:00 3.48 14.29 196 6.80 67.3 66.4 0.29 295.0
2023-08-23 21:30 3.22 13.33 195 6.62 67.8 66.7 0.37 278.0
2023-08-23 21:00 3.58 14.29 195 7.29 67.8 67.5 0.37 294.0
2023-08-23 20:30 3.35 13.33 198 6.27 67.8 67.8 0.33 296.0
2023-08-23 20:00 3.22 14.29 193 6.16 68.2 68.0 0.33 297.0
2023-08-23 19:30 3.22 20.00 178 6.46 68.4 68.0 0.25 271.0
2023-08-23 19:00 3.15 13.33 186 6.60 68.4 68.5 0.29 275.0
2023-08-23 18:30 3.22 14.29 192 6.69 68.4 68.9 0.23 269.0
2023-08-23 18:00 3.48 13.33 185 7.11 68.7 69.1 0.21 266.0
2023-08-23 17:30 2.99 14.29 188 6.28 68.9 69.6 0.14 261.0
2023-08-23 17:00 2.92 20.00 177 6.76 69.1 69.8 0.14 227.0
2023-08-23 16:30 3.18 14.29 191 7.10 69.1 69.8 0.04 183.0
2023-08-23 16:00 3.28 13.33 198 7.20 69.1 69.4 0.00 241.0
2023-08-23 15:30 3.44 14.29 191 7.58 69.1 69.3 0.06 50.0
2023-08-23 15:00 3.81 14.29 190 7.95 68.7 69.1 0.10 15.0
2023-08-23 14:30 3.48 14.29 194 7.25 68.4 68.2 0.16 22.0
2023-08-23 14:00 3.41 14.29 193 6.85 68.4 68.2 0.12 9.0
2023-08-23 13:30 3.35 14.29 189 6.74 68.4 67.8 0.21 354.0
2023-08-23 13:00 3.25 13.33 199 7.34 68.2 68.0 0.23 347.0
2023-08-23 12:30 3.25 14.29 196 7.40 68.2 68.2 0.21 12.0
2023-08-23 12:00 3.41 14.29 188 7.81 68.0 68.2 0.27 345.0
2023-08-23 11:30 3.22 14.29 190 7.79 67.8 68.2 0.27 359.0
2023-08-23 11:00 3.08 14.29 196 8.10 67.6 67.6 0.29 334.0
2023-08-23 10:30 3.22 14.29 191 8.63 68.4 67.3 0.37 312.0
2023-08-23 10:00 3.41 14.29 194 9.04 68.0 67.5 0.33 312.0
2023-08-23 09:30 3.54 14.29 191 9.12 67.8 66.7 0.25 308.0
2023-08-23 09:00 3.12 14.29 196 8.20 67.3 67.1 0.29 316.0
2023-08-23 08:30 3.18 14.29 202 8.76 66.9 66.2 0.21 310.0
2023-08-23 08:00 3.58 14.29 196 9.63 66.7 65.7 0.19 318.0
2023-08-23 07:30 3.08 14.29 195 8.82 66.9 66.0 0.16 312.0
2023-08-23 07:00 3.31 14.29 199 8.81 66.9 65.5 0.16 295.0
2023-08-23 06:30 2.79 14.29 189 8.05 66.9 64.8 0.14 266.0
2023-08-23 06:00 3.08 14.29 193 8.76 66.9 65.1 0.06 320.0
2023-08-23 05:30 3.35 14.29 193 8.99 66.9 65.1 0.02 312.0
2023-08-23 05:00 3.38 13.33 198 8.76 66.9 64.8 0.08 284.0
2023-08-23 04:30 3.25 14.29 192 8.42 66.9 64.8 0.02 291.0
2023-08-23 04:00 3.28 14.29 197 8.39 67.1 64.6 0.08 358.0
2023-08-23 03:30 3.02 14.29 201 7.79 67.1 64.9 0.12 321.0
2023-08-23 03:00 3.25 14.29 200 8.06 67.1 65.5 0.10 323.0
2023-08-23 02:30 2.92 15.38 196 6.91 67.1 66.4 0.08 267.0
2023-08-23 02:00 2.92 14.29 195 6.74 67.1 66.4 0.10 247.0
2023-08-23 01:30 3.08 14.29 193 6.81 67.1 66.4 0.12 341.0
2023-08-23 01:00 3.22 15.38 192 7.10 67.1 66.7 0.10 313.0
2023-08-23 00:30 3.38 15.38 195 7.26 67.1 66.9 0.06 305.0
2023-08-23 00:00 3.15 14.29 199 6.32 67.1 66.9 0.04 308.0
2023-08-22 23:30 3.05 14.29 190 5.99 67.3 67.1 0.08 346.0
2023-08-22 23:00 3.15 15.38 195 6.10 67.3 66.9 0.08 24.0
2023-08-22 22:30 3.31 15.38 197 5.99 67.1 66.7 0.12 37.0
2023-08-22 22:00 3.48 15.38 197 6.21 67.1 66.9 0.16 7.0
2023-08-22 21:30 3.48 15.38 192 5.71 67.1 67.1 0.16 10.0
2023-08-22 21:00 3.51 15.38 197 5.63 67.1 67.5 0.16 355.0
2023-08-22 20:30 3.67 15.38 195 5.57 67.1 67.6 0.08 355.0
2023-08-22 20:00 3.44 14.29 195 5.12 67.1 68.2 0.04 40.0
2023-08-22 19:30 3.58 15.38 196 5.46 67.3 68.4 0.10 215.0
2023-08-22 19:00 3.61 15.38 197 5.17 67.5 69.1 0.14 220.0
2023-08-22 18:30 3.87 14.29 190 5.58 67.5 69.6 0.17 234.0
2023-08-22 18:00 3.61 13.33 191 5.46 67.6 70.0 0.16 217.0
2023-08-22 17:30 3.67 14.29 192 5.15 67.8 70.0 0.19 227.0
2023-08-22 17:00 3.61 14.29 194 5.27 67.8 70.0 0.16 234.0
2023-08-22 16:30 3.48 15.38 193 5.07 67.8 69.8 0.17 234.0
2023-08-22 16:00 3.44 15.38 192 5.27 67.8 69.8 0.21 231.0
2023-08-22 15:30 3.41 15.38 186 5.10 67.8 69.6 0.23 219.0
2023-08-22 15:00 3.31 15.38 192 5.17 67.6 69.4 0.23 262.0
2023-08-22 14:30 3.35 14.29 198 5.49 67.8 69.4 0.33 241.0
2023-08-22 14:00 3.28 14.29 195 5.63 67.8 69.3 0.25 251.0
2023-08-22 13:30 3.25 15.38 193 5.99 68.2 69.1 0.29 232.0
2023-08-22 13:00 3.18 15.38 196 5.94 68.4 68.9 0.29 220.0
2023-08-22 12:30 3.08 14.29 192 6.11 68.4 68.5 0.29 224.0
2023-08-22 12:00 2.92 15.38 190 6.37 68.4 68.4 0.27 215.0
2023-08-22 11:30 3.02 14.29 194 7.07 68.4 68.4 0.23 215.0
2023-08-22 11:00 3.05 15.38 192 8.10 68.4 68.2 0.25 199.0
2023-08-22 10:30 2.76 14.29 198 8.00 68.5 68.0 0.25 219.0
2023-08-22 10:00 2.82 11.76 197 9.30 68.5 67.1 0.27 211.0
2023-08-22 09:30 2.66 14.29 200 9.07 68.4 66.4 0.29 203.0
2023-08-22 09:00 2.66 11.76 190 8.63 68.4 66.4 0.27 197.0
2023-08-22 08:30 2.82 11.11 200 9.02 68.2 65.8 0.29 192.0
2023-08-22 08:00 2.69 14.29 202 8.61 68.2 66.0 0.25 172.0
2023-08-22 07:30 2.82 11.76 184 8.81 68.2 65.5 0.27 187.0
2023-08-22 07:00 2.82 11.76 192 8.74 68.2 65.1 0.23 169.0
2023-08-22 06:30 2.69 11.76 192 8.27 68.2 65.3 0.23 158.0
2023-08-22 06:00 2.69 15.38 196 8.17 68.4 66.0 0.16 146.0
2023-08-22 05:30 2.53 11.76 185 7.59 68.4 65.7 0.16 148.0
2023-08-22 05:00 2.66 12.50 181 7.68 68.4 65.7 0.19 112.0
2023-08-22 04:30 2.76 12.50 187 7.78 68.4 65.5 0.17 78.0
2023-08-22 04:00 2.72 14.29 196 7.40 68.4 66.0 0.27 95.0
2023-08-22 03:30 2.53 11.76 189 7.36 68.2 66.9 0.29 79.0
2023-08-22 03:00 2.56 14.29 198 7.85 68.0 67.1 0.29 62.0
2023-08-22 02:30 2.69 11.76 184 8.17 68.0 67.3 0.27 64.0
2023-08-22 02:00 2.53 11.76 192 7.19 68.0 67.6 0.27 64.0
2023-08-22 01:30 2.53 12.50 184 6.97 68.0 67.8 0.27 43.0
2023-08-22 01:00 2.69 11.76 196 7.24 68.2 67.8 0.21 44.0
2023-08-22 00:30 2.33 11.76 196 6.95 68.2 68.0 0.23 35.0
2023-08-22 00:00 2.26 11.11 200 6.68 68.2 68.2 0.23 18.0
2023-08-21 23:30 2.46 11.76 189 7.12 68.2 68.4 0.19 20.0
2023-08-21 23:00 2.36 11.76 190 7.32 68.2 68.4 0.21 358.0
2023-08-21 22:30 2.40 15.38 198 7.46 68.4 68.2 0.17 336.0
2023-08-21 22:00 2.30 11.76 190 7.00 68.4 68.2 0.21 325.0
2023-08-21 21:30 2.56 11.76 194 7.51 68.2 68.4 0.21 323.0
2023-08-21 21:00 2.43 11.76 198 7.19 68.4 68.5 0.23 326.0
2023-08-21 20:30 2.46 11.76 202 7.47 68.4 68.7 0.25 324.0
2023-08-21 20:00 2.46 12.50 197 7.49 68.5 68.0 0.25 311.0
2023-08-21 19:30 2.43 15.38 205 7.14 68.5 67.8 0.23 311.0
2023-08-21 19:00 2.53 11.76 192 7.60 68.5 68.2 0.31 302.0
2023-08-21 18:30 2.72 11.11 187 7.32 68.9 68.5 0.23 300.0
2023-08-21 18:00 2.76 11.76 195 6.99 69.1 69.3 0.21 303.0
2023-08-21 17:30 2.76 11.76 185 6.68 69.1 69.3 0.21 282.0
2023-08-21 17:00 2.85 11.76 178 6.85 69.3 69.4 0.25 255.0
2023-08-21 16:30 2.85 11.76 183 6.84 69.4 69.8 0.27 251.0
2023-08-21 16:00 2.82 11.76 179 6.71 69.6 70.0 0.29 239.0
2023-08-21 15:30 2.89 11.76 186 7.30 70.2 70.0 0.35 231.0
2023-08-21 15:00 2.82 12.50 188 7.08 70.2 70.0 0.39 222.0
2023-08-21 14:30 2.85 11.76 191 7.02 70.0 69.4 0.37 222.0
2023-08-21 14:00 2.95 12.50 195 7.10 69.6 68.7 0.43 221.0
2023-08-21 13:30 2.99 11.76 188 7.00 69.1 68.0 0.37 216.0
2023-08-21 13:00 3.05 11.76 192 6.87 68.9 66.7 0.41 215.0
2023-08-21 12:30 3.15 12.50 190 7.08 68.4 65.8 0.41 211.0
2023-08-21 12:00 3.02 12.50 187 6.79 68.4 65.3
2023-08-21 11:30 3.12 11.76 190 6.39 68.2 64.6
2023-08-21 11:00 2.92 12.50 192 6.19 67.8 63.9 0.45 191.0
2023-08-21 10:30 3.15 12.50 185 6.35 67.5 62.6 0.41 185.0
2023-08-21 10:00 3.12 11.76 191 5.92 67.5 63.3
2023-08-21 09:30 3.28 12.50 184 5.75 67.3 64.6
2023-08-21 09:00 3.44 11.76 187 5.91 67.3 64.4
2023-08-21 08:30 3.48 13.33 175 5.70 67.3 64.6 0.41 136.0
2023-08-21 08:00 3.71 12.50 184 5.70 67.3 64.2 0.49 128.0
2023-08-21 07:30 3.94 12.50 182 5.65 67.3 63.5 0.49 117.0
2023-08-21 07:00 3.84 5.26 195 5.05 67.3 64.2 0.47 103.0
2023-08-21 06:30 3.97 5.71 189 5.19 67.3 64.0 0.43 110.0
2023-08-21 06:00 4.17 5.56 189 4.97 67.5 64.0
2023-08-21 05:30 4.53 5.26 201 4.82 67.5 64.9 0.54 77.0
2023-08-21 05:00 4.59 5.56 193 4.88 67.5 0.60 71.0
2023-08-21 04:30 4.49 6.06 187 4.64 67.5 65.3 0.64 69.0
2023-08-21 04:00 4.86 5.41 181 4.69 67.6 66.7 0.74 61.0
2023-08-21 03:30 4.99 5.41 186 4.72 67.6 66.6 0.89 48.0
2023-08-21 03:00 5.25 5.00 174 4.81 67.5 66.6 0.95 49.0
2023-08-21 02:30 5.45 5.56 167 4.79 66.9 65.5 1.03 39.0
2023-08-21 02:00 5.84 5.71 162 4.72 66.7 66.2 1.05 34.0
2023-08-21 01:30 6.27 6.25 160 4.95 66.6 1.01 32.0
2023-08-21 01:00 6.43 5.71 160 4.83 66.4 65.3 1.01 30.0
2023-08-21 00:30 6.43 6.25 148 4.84 66.0 64.8 0.99 27.0
2023-08-21 00:00 6.96 6.25 151 4.92 66.2 64.8 0.97 24.0
2023-08-20 23:30 7.19 6.06 151 4.93 66.4 64.9 0.91 18.0
2023-08-20 23:00 7.19 6.06 149 4.97 66.6 64.8 0.72 7.0
2023-08-20 22:30 6.92 5.41 149 4.70 66.7 65.3 0.54 15.0
2023-08-20 22:00 5.61 5.26 155 4.53 66.7 65.8 0.49 43.0
2023-08-20 21:30 4.82 5.41 155 4.51 66.6 67.5 0.45 37.0
2023-08-20 21:00 4.86 5.41 151 4.65 66.4 67.6 0.29 34.0
2023-08-20 20:30 5.41 5.71 149 4.84 66.4 67.8 0.33 47.0
2023-08-20 20:00 5.45 12.50 180 5.08 66.2 68.2 0.19 46.0
2023-08-20 19:30 5.74 5.41 147 5.06 66.2 66.2 0.12 66.0
2023-08-20 19:00 5.71 5.13 148 4.97 66.2 66.2 0.08 312.0
2023-08-20 18:30 5.28 13.33 170 5.26 66.2 67.6 0.45 178.0
2023-08-20 18:00 4.95 14.29 174 6.36 66.2 69.3 0.58 158.0
2023-08-20 17:30 3.97 14.29 171 7.57 66.9 70.0 0.66 158.0
2023-08-20 17:00 4.92 15.38 170 10.98 67.1 70.3 0.76 156.0
2023-08-20 16:30 4.72 15.38 169 11.29 67.3 71.2 0.89 143.0
2023-08-20 16:00 4.23 15.38 170 9.67 67.1 68.9 0.93 142.0
2023-08-20 15:30 4.63 15.38 166 9.80 67.1 69.1 0.89 139.0
2023-08-20 15:00 4.69 15.38 167 9.06 67.1 69.3 0.93 139.0
2023-08-20 14:30 3.87 14.29 168 6.80 66.9 69.1 0.87 134.0
2023-08-20 14:00 4.86 15.38 165 8.19 66.9 69.4 0.86 134.0
2023-08-20 13:30 4.36 15.38 169 7.03 66.9 69.3 0.87 130.0
2023-08-20 13:00 4.27 15.38 168 7.26 66.7 69.1 0.87 133.0
2023-08-20 12:30 4.04 15.38 168 8.03 66.4 68.2 0.84 137.0
2023-08-20 12:00 3.90 15.38 164 9.05 66.6 68.2 0.80 134.0
2023-08-20 11:30 4.27 15.38 167 9.89 66.4 68.2 0.74 141.0
2023-08-20 11:00 3.51 14.29 169 8.12 66.4 67.8 0.70 146.0
2023-08-20 10:30 4.00 15.38 169 9.72 66.6 68.0 0.68 139.0
2023-08-20 10:00 3.64 14.29 172 9.43 66.6 68.2 0.66 145.0
2023-08-20 09:30 4.17 14.29 170 10.88 66.6 68.0 0.70 141.0
2023-08-20 09:00 3.31 14.29 175 9.56 66.6 68.4 0.70 142.0
2023-08-20 08:30 3.61 14.29 169 9.89 66.4 67.8 0.70 141.0
2023-08-20 08:00 3.84 14.29 169 10.14 66.4 67.3 0.72 139.0
2023-08-20 07:30 3.58 13.33 175 10.45 66.4 67.8 0.72 131.0
2023-08-20 07:00 3.44 14.29 171 10.38 66.4 68.5 0.72 133.0
2023-08-20 06:30 3.38 14.29 167 10.30 66.4 68.4 0.72 125.0
2023-08-20 06:00 3.51 13.33 171 10.21 66.2 67.6 0.76 129.0
2023-08-20 05:30 3.84 12.50 173 10.42 66.2 66.7 0.66 127.0
2023-08-20 05:00 3.28 14.29 171 9.61 66.0 65.8 0.68 121.0
2023-08-20 04:30 3.12 13.33 180 9.04 66.0 65.7 0.60 128.0
2023-08-20 04:00 2.82 13.33 177 8.29 65.8 65.3 0.64 129.0
2023-08-20 03:30 3.02 12.50 184 8.43 65.8 65.5 0.66 137.0
2023-08-20 03:00 2.66 12.50 182 7.61 65.8 66.9 0.60 139.0
2023-08-20 02:30 2.76 12.50 181 7.22 65.8 66.9 0.62 143.0
2023-08-20 02:00 2.76 13.33 186 7.92 66.0 67.3 0.60 146.0
2023-08-20 01:30 3.15 13.33 181 8.58 66.2 67.3 0.56 152.0
2023-08-20 01:00 2.82 12.50 182 7.18 66.4 67.3 0.64 151.0
2023-08-20 00:30 2.76 12.50 173 7.78 66.9 67.1 0.70 158.0
2023-08-20 00:00 2.56 12.50 179 8.06 67.1 67.6 0.78 164.0
2023-08-19 23:30 2.72 13.33 186 8.46 67.3 68.0 0.87 157.0
2023-08-19 23:00 2.85 12.50 180 9.57 67.6 67.8 0.91 156.0
2023-08-19 22:30 2.62 13.33 177 10.01 68.0 67.8 0.93 153.0
2023-08-19 22:00 2.69 13.33 180 9.92 68.2 67.8 0.89 149.0
2023-08-19 21:30 2.66 13.33 186 9.92 68.7 67.8 1.05 145.0
2023-08-19 21:00 2.33 13.33 185 8.89 68.9 67.8 1.11 143.0
2023-08-19 20:30 2.89 13.33 183 9.86 69.1 68.2 1.11 138.0
2023-08-19 20:00 2.69 13.33 185 9.65 69.4 68.4 1.11 132.0
2023-08-19 19:30 2.46 13.33 183 9.32 69.6 68.4 1.11 128.0
2023-08-19 19:00 3.22 13.33 182 10.42 69.6 68.2 1.07 127.0
2023-08-19 18:30 2.46 13.33 182 8.99 69.8 68.0 1.05 120.0
2023-08-19 18:00 2.46 13.33 182 9.02 69.8 68.0 1.03 118.0
2023-08-19 17:30 2.49 13.33 183 8.72 69.6 68.2 1.01 112.0
2023-08-19 17:00 2.62 13.33 185 8.57 69.8 68.7 0.91 111.0
2023-08-19 16:30 2.56 13.33 185 8.24 69.6 69.1 0.91 106.0
2023-08-19 16:00 2.59 14.29 189 8.47 69.4 68.4 0.89 101.0
2023-08-19 15:30 2.85 13.33 184 8.70 69.3 68.4 0.89 104.0
2023-08-19 15:00 2.40 13.33 181 7.72 69.3 69.1 0.86 98.0
2023-08-19 14:30 2.66 13.33 179 8.48 69.1 69.1 0.84 98.0
2023-08-19 14:00 2.89 13.33 180 8.75 68.5 68.7 0.76 97.0
2023-08-19 13:30 2.62 13.33 183 8.35 68.2 67.6 0.78 99.0
2023-08-19 13:00 2.72 13.33 182 8.72 68.0 67.1 0.72 100.0
2023-08-19 12:30 2.53 13.33 186 8.24 67.8 67.1 0.72 105.0
2023-08-19 12:00 2.56 13.33 183 7.99 67.6 66.7 0.74 103.0
2023-08-19 11:30 2.49 13.33 186 7.88 67.5 66.6 0.72 106.0
2023-08-19 11:00 2.53 13.33 182 7.93 67.5 65.8 0.66 106.0
2023-08-19 10:30 2.85 13.33 186 9.01 67.3 64.9 0.64 109.0
2023-08-19 10:00 2.76 13.33 187 8.93 66.9 63.9 0.66 114.0
2023-08-19 09:30 2.62 13.33 182 8.27 66.7 63.1 0.68 124.0
2023-08-19 09:00 2.53 13.33 186 8.12 66.4 62.8 0.66 128.0
2023-08-19 08:30 2.43 13.33 184 7.77 66.2 62.8 0.66 127.0
2023-08-19 08:00 2.89 13.33 188 8.73 66.2 0.72 125.0
2023-08-19 07:30 2.56 13.33 181 7.86 66.0 62.6 0.64 121.0
2023-08-19 07:00 2.82 13.33 188 8.48 65.8 62.2 0.66 122.0
2023-08-19 06:30 2.56 13.33 182 7.60 65.7 62.8 0.68 119.0
2023-08-19 06:00 2.85 14.29 188 8.11 65.5 63.0 0.72 122.0
2023-08-19 05:30 2.36 13.33 189 6.98 65.5 62.6 0.66 125.0
2023-08-19 05:00 2.69 13.33 187 7.99 65.5 62.6 0.70 126.0
2023-08-19 04:30 2.49 14.29 186 7.53 65.5 63.1 0.60 135.0
2023-08-19 04:00 2.89 14.29 188 8.23 65.5 63.5 0.62 138.0
2023-08-19 03:30 2.76 14.29 184 8.18 65.7 64.6 0.62 141.0
2023-08-19 03:00 2.62 13.33 183 7.64 66.0 65.5 0.62 138.0
2023-08-19 02:30 2.69 14.29 190 7.64 66.2 65.7 0.64 144.0
2023-08-19 02:00 2.62 14.29 188 7.27 66.4 65.3 0.68 152.0
2023-08-19 01:30 2.56 13.33 182 6.94 66.6 66.0 0.70 155.0
2023-08-19 01:00 2.89 14.29 184 7.64 66.7 66.4 0.68 159.0
2023-08-19 00:30 2.76 13.33 194 7.03 66.7 66.4 0.72 163.0
2023-08-19 00:00 3.02 14.29 188 7.65 66.7 66.7 0.80 166.0
2023-08-18 23:30 3.12 13.33 189 7.48 66.9 66.6 0.82 166.0
2023-08-18 23:00 3.15 13.33 187 7.84 66.7 66.9 0.95 168.0
2023-08-18 22:30 2.89 14.29 183 7.53 66.7 67.1 0.99 164.0
2023-08-18 22:00 2.99 14.29 196 7.34 66.2 1.07 165.0
2023-08-18 21:30 2.76 13.33 189 6.85 66.0 65.8 1.09 163.0
2023-08-18 21:00 3.12 13.33 187 7.32 66.0 65.5 1.09 161.0
2023-08-18 20:30 2.76 14.29 187 6.64 66.2 65.7 1.17 159.0
2023-08-18 20:00 2.99 13.33 195 6.99 66.4 66.2 1.21 158.0
2023-08-18 19:30 3.05 13.33 188 7.15 66.4 66.7 1.22 155.0
2023-08-18 19:00 2.72 14.29 185 5.74 66.4 68.2 1.24 152.0
2023-08-18 18:30 2.92 14.29 182 5.83 67.3 69.4 1.38 143.0
2023-08-18 18:00 3.15 14.29 181 6.31 67.8 69.4 1.40 139.0
2023-08-18 17:30 3.18 14.29 181 6.06 68.0 68.9 1.44 140.0
2023-08-18 17:00 3.02 14.29 191 5.84 68.2 69.3 1.44 134.0
2023-08-18 16:30 3.08 14.29 188 5.91 68.4 69.1 1.44 132.0
2023-08-18 16:00 3.08 15.38 183 6.05 68.5 68.7 1.44 128.0
2023-08-18 15:30 2.66 14.29 185 5.12 68.4 68.4 1.40 126.0
2023-08-18 15:00 2.56 14.29 182 5.23 68.2 68.2 1.28 122.0
2023-08-18 14:30 2.92 14.29 184 5.71 68.0 68.0 1.17 117.0
2023-08-18 14:00 2.69 14.29 192 5.06 67.8 67.5 1.11 116.0
2023-08-18 13:30 2.53 14.29 182 4.91 67.6 67.3 1.11 114.0
2023-08-18 13:00 2.53 14.29 187 4.55 67.5 66.9 1.05 112.0
2023-08-18 12:30 2.89 14.29 182 6.11 67.1 66.6 1.01 111.0
2023-08-18 12:00 2.46 14.29 184 5.74 66.9 66.0 0.87 115.0
2023-08-18 11:30 2.62 14.29 188 6.65 66.6 65.3 0.84 117.0
2023-08-18 11:00 2.82 14.29 185 7.37 66.4 65.5 0.82 114.0
2023-08-18 10:30 2.43 14.29 182 6.53 66.0 65.5 0.80 118.0
2023-08-18 10:00 2.82 14.29 178 7.46 65.8 65.1 0.72 126.0
2023-08-18 09:30 2.72 14.29 187 7.45 65.8 64.9 0.74 121.0
2023-08-18 09:00 2.82 14.29 184 7.51 65.7 64.8 0.72 124.0
2023-08-18 08:30 2.69 14.29 183 7.53 65.7 64.8 0.68 122.0
2023-08-18 08:00 2.69 14.29 181 7.27 65.5 64.4 0.60 117.0
2023-08-18 07:30 2.69 15.38 184 7.10 65.3 63.3 0.56 117.0
2023-08-18 07:00 2.85 14.29 187 7.80 65.1 64.0 0.54 112.0
2023-08-18 06:30 2.69 14.29 181 7.29 65.1 64.2 0.51 124.0
2023-08-18 06:00 2.92 14.29 183 7.46 65.1 63.7 0.52 124.0
2023-08-18 05:30 2.66 14.29 183 7.31 64.9 63.7 0.56 130.0
2023-08-18 05:00 2.85 14.29 183 7.45 64.9 63.9 0.60 130.0
2023-08-18 04:30 2.69 14.29 184 7.24 64.9 64.2 0.62 134.0
2023-08-18 04:00 2.69 14.29 188 7.05 64.9 64.4 0.62 142.0
2023-08-18 03:30 2.79 14.29 191 6.84 65.1 64.4 0.66 143.0
2023-08-18 03:00 2.79 15.38 190 6.63 65.1 64.6 0.66 152.0
2023-08-18 02:30 2.76 14.29 184 6.92 65.1 65.1 0.62 153.0
2023-08-18 02:00 2.82 15.38 191 6.72 65.3 65.3 0.70 151.0
2023-08-18 01:30 2.59 15.38 187 6.00 65.5 65.1 0.72 150.0
2023-08-18 01:00 2.79 15.38 196 6.06 65.3 65.1 0.70 145.0
2023-08-18 00:30 2.85 15.38 189 5.98 65.5 65.3 0.78 151.0
2023-08-18 00:00 2.92 14.29 189 5.70 65.5 65.7 0.74 150.0
2023-08-17 23:30 2.92 15.38 187 5.87 65.7 65.8 0.82 152.0
2023-08-17 23:00 2.85 15.38 198 5.59 66.0 65.8 0.89 155.0
2023-08-17 22:30 3.08 15.38 189 5.77 66.2 66.2 0.91 157.0
2023-08-17 22:00 3.15 15.38 186 5.36 66.4 66.2 0.97 152.0
2023-08-17 21:30 3.15 15.38 182 5.05 66.6 66.4 1.07 156.0
2023-08-17 21:00 3.58 15.38 186 5.18 66.7 66.6 1.15 155.0
2023-08-17 20:30 3.64 5.00 274 4.89 66.6 66.0 1.15 155.0
2023-08-17 20:00 3.44 4.88 276 4.60 66.6 66.4 1.21 154.0
2023-08-17 19:30 3.58 5.26 280 4.40 66.4 66.6 1.21 149.0
2023-08-17 19:00 3.58 15.38 196 4.34 66.4 67.5 1.22 149.0
2023-08-17 18:30 3.74 4.76 274 4.08 66.9 68.0 1.26 146.0
2023-08-17 18:00 3.77 15.38 186 4.33 68.2 68.5 1.46 142.0
2023-08-17 17:30 3.48 15.38 178 4.10 69.3 68.5 1.57 136.0
2023-08-17 17:00 3.22 16.67 194 4.00 69.3 68.7 1.50 133.0
2023-08-17 16:30 2.99 14.29 195 4.15 69.1 68.4 1.44 131.0
2023-08-17 16:00 2.95 15.38 184 4.27 69.3 68.9 1.34 126.0
2023-08-17 15:30 2.89 15.38 176 4.44 69.1 68.4 1.26 125.0
2023-08-17 15:00 3.05 16.67 182 5.14 69.1 68.2 1.17 123.0
2023-08-17 14:30 2.82 12.50 205 4.88 68.9 67.6 1.21 122.0
2023-08-17 14:00 2.76 13.33 194 4.93 68.5 67.3 1.19 119.0
2023-08-17 13:30 2.79 14.29 191 4.70 68.4 66.6 1.11 117.0
2023-08-17 13:00 2.76 14.29 189 5.10 68.5 66.9 1.11 112.0
2023-08-17 12:30 2.66 14.29 195 5.74 68.7 67.3 1.05 106.0
2023-08-17 12:00 2.82 16.67 191 6.21 68.7 67.1 0.99 108.0
2023-08-17 11:30 2.85 14.29 180 6.57 68.5 66.9 0.97 109.0
2023-08-17 11:00 2.76 14.29 196 6.09 68.2 66.7 0.89 106.0
2023-08-17 10:30 2.85 15.38 185 6.10 67.8 66.7 0.84 107.0
2023-08-17 10:00 2.95 16.67 190 6.35 67.8 66.0 0.78 113.0
2023-08-17 09:30 2.92 16.67 192 6.01 67.5 65.5 0.68 121.0
2023-08-17 09:00 2.82 14.29 196 5.95 67.3 0.72 122.0
2023-08-17 08:30 2.82 15.38 193 5.81 67.1 63.9 0.72 119.0
2023-08-17 08:00 2.76 14.29 188 5.79 66.9 64.2 0.78 124.0
2023-08-17 07:30 2.76 13.33 198 5.77 66.9 64.4 0.74 124.0
2023-08-17 07:00 2.92 15.38 193 5.89 66.7 64.0 0.76 127.0
2023-08-17 06:30 2.95 14.29 205 5.93 66.6 64.2 0.72 131.0
2023-08-17 06:00 3.02 14.29 199 6.08 66.7 64.4 0.78 138.0
2023-08-17 05:30 3.12 14.29 202 6.32 66.9 64.2 0.82 138.0
2023-08-17 05:00 3.05 14.29 194 5.97 66.9 64.6 0.82 145.0
2023-08-17 04:30 3.12 14.29 203 5.95 67.1 65.8 0.87 148.0
2023-08-17 04:00 3.05 15.38 193 5.86 67.1 66.2 0.86 151.0
2023-08-17 03:30 3.08 15.38 190 6.10 67.1 66.2 0.80 151.0
2023-08-17 03:00 3.05 13.33 199 6.29 67.1 66.6 0.76 149.0
2023-08-17 02:30 2.85 15.38 190 6.07 67.1 66.9 0.76 150.0
2023-08-17 02:00 2.92 14.29 195 6.58 67.1 66.6 0.70 146.0
2023-08-17 01:30 3.12 15.38 193 6.91 67.1 66.4 0.84 152.0
2023-08-17 01:00 2.89 15.38 196 6.10 66.9 66.4 0.80 154.0
2023-08-17 00:30 2.89 15.38 193 6.04 67.1 67.3 0.80 154.0
2023-08-17 00:00 2.95 14.29 210 5.99 67.1 66.9 0.86 154.0
2023-08-16 23:30 2.89 13.33 196 5.88 67.3 66.9 0.82 157.0
2023-08-16 23:00 3.12 13.33 203 5.79 67.5 66.7 0.86 155.0
2023-08-16 22:30 3.35 14.29 207 5.55 67.6 66.7 0.89 156.0
2023-08-16 22:00 3.44 15.38 196 5.71 67.8 66.9 0.97 157.0
2023-08-16 21:30 3.58 15.38 196 5.32 68.0 67.3 0.97 156.0
2023-08-16 21:00 3.38 15.38 186 4.96 68.2 67.6 1.15 153.0
2023-08-16 20:30 3.64 14.29 206 5.05 68.9 67.5 1.30 147.0
2023-08-16 20:00 3.81 14.29 195 5.00 69.1 68.0 1.30 150.0
2023-08-16 19:30 3.87 15.38 185 4.78 69.3 68.5 1.36 149.0
2023-08-16 19:00 3.81 5.13 285 4.57 69.3 69.3 1.44 145.0
2023-08-16 18:30 3.54 14.29 205 4.46 69.6 69.8 1.40 142.0
2023-08-16 18:00 3.51 15.38 193 4.36 69.8 70.0 1.54 139.0
2023-08-16 17:30 3.38 14.29 203 4.20 69.8 70.2 1.48 135.0
2023-08-16 17:00 3.48 14.29 189 4.11 69.8 69.8 1.48 137.0
2023-08-16 16:30 3.58 14.29 209 4.08 69.8 69.8 1.46 132.0
2023-08-16 16:00 3.44 14.29 210 4.02 69.8 70.3 1.48 127.0
2023-08-16 15:30 3.25 18.18 204 3.98 70.0 70.2 1.42 127.0
2023-08-16 15:00 3.08 14.29 201 3.83 70.0 69.8 1.38 121.0
2023-08-16 14:30 3.22 14.29 186 3.82 69.8 69.6 1.28 123.0
2023-08-16 14:00 3.05 15.38 189 4.06 69.8 69.3 1.28 120.0
2023-08-16 13:30 2.99 15.38 192 4.31 69.6 68.7 1.19 117.0
2023-08-16 13:00 2.85 15.38 199 4.35 69.4 68.7 1.11 119.0
2023-08-16 12:30 2.85 14.29 203 4.58 69.4 68.5 1.05 116.0
2023-08-16 12:00 2.79 14.29 203 4.80 69.4 68.5 1.03 122.0
2023-08-16 11:30 2.62 15.38 195 4.86 69.3 68.0 0.99 119.0
2023-08-16 11:00 2.72 15.38 196 5.36 69.1 68.5 0.99 120.0
2023-08-16 10:30 2.79 15.38 193 5.78 68.7 68.4 0.95 122.0
2023-08-16 10:00 2.76 15.38 192 5.57 68.7 67.6 0.93 125.0
2023-08-16 09:30 2.62 14.29 201 5.25 68.4 68.0 0.97 129.0
2023-08-16 09:00 2.56 14.29 214 5.41 68.4 68.0 0.95 127.0
2023-08-16 08:30 2.66 15.38 203 5.37 68.2 67.8 0.97 129.0
2023-08-16 08:00 2.69 15.38 196 5.50 68.2 67.6 0.91 125.0
2023-08-16 07:30 2.69 15.38 196 5.47 68.2 67.5 0.97 131.0
2023-08-16 07:00 2.66 15.38 194 5.64 68.0 67.6 0.95 132.0
2023-08-16 06:30 2.72 15.38 200 5.99 68.0 67.5 0.99 130.0
2023-08-16 06:00 2.76 15.38 198 5.58 68.2 67.3 1.03 130.0
2023-08-16 05:30 2.62 14.29 198 5.50 68.2 67.3 1.05 137.0
2023-08-16 05:00 2.56 16.67 184 5.90 68.0 67.3 1.01 138.0
2023-08-16 04:30 2.59 16.67 193 6.07 68.2 67.6 1.03 143.0
2023-08-16 04:00 2.56 15.38 201 6.05 68.2 67.6 1.03 146.0
2023-08-16 03:30 2.72 15.38 196 6.44 68.2 67.5 1.05 146.0
2023-08-16 03:00 2.62 15.38 192 6.22 68.2 67.5 1.13 147.0
2023-08-16 02:30 2.69 15.38 202 6.29 68.0 67.5 1.11 151.0
2023-08-16 02:00 2.69 15.38 199 6.16 67.8 67.8 1.13 151.0
2023-08-16 01:30 2.72 15.38 210 5.62 67.8 67.6 1.05 148.0
2023-08-16 01:00 2.95 14.29 204 5.91 68.0 67.8 1.09 152.0
2023-08-16 00:30 2.89 15.38 207 5.58 68.2 67.8 1.09 147.0
2023-08-16 00:00 3.05 15.38 192 5.51 68.4 67.8 1.21 153.0
2023-08-15 23:30 2.89 15.38 207 5.43 68.7 68.0 1.19 151.0
2023-08-15 23:00 2.76 15.38 197 4.96 68.9 68.4 1.22 152.0
2023-08-15 22:30 2.85 15.38 200 5.10 69.1 68.4 1.19 148.0
2023-08-15 22:00 2.72 15.38 187 4.69 69.1 68.4 1.26 151.0
2023-08-15 21:30 2.76 15.38 205 4.63 69.3 68.5 1.26 149.0
2023-08-15 21:00 3.02 15.38 189 4.59 69.4 68.4 1.28 149.0
2023-08-15 20:30 3.02 15.38 205 4.48 69.6 68.5 1.36 145.0
2023-08-15 20:00 2.99 15.38 199 4.78 70.0 68.5 1.40 142.0
2023-08-15 19:30 3.31 15.38 195 5.11 70.2 68.4 1.42 142.0
2023-08-15 19:00 3.25 15.38 194 4.92 70.3 68.4 1.42 140.0
2023-08-15 18:30 2.99 15.38 202 4.30 70.5 69.4 1.48 139.0
2023-08-15 18:00 3.12 15.38 195 4.28 70.7 69.4 1.54 137.0
2023-08-15 17:30 3.22 16.67 187 4.32 70.7 70.0 1.42 132.0
2023-08-15 17:00 3.28 15.38 201 4.33 70.9 69.8 1.50 130.0
2023-08-15 16:30 3.41 16.67 200 4.43 70.9 69.4 1.44 129.0
2023-08-15 16:00 3.05 16.67 183 4.02 70.9 69.4 1.52 124.0
2023-08-15 15:30 2.85 16.67 195 3.89 71.1 69.1 1.26 123.0
2023-08-15 15:00 2.95 16.67 200 4.12 70.9 69.1 1.28 120.0
2023-08-15 14:30 2.76 16.67 190 4.10 70.9 69.1 1.17 122.0
2023-08-15 14:00 2.66 16.67 198 4.13 70.9 68.5 1.07 120.0
2023-08-15 13:30 2.59 16.67 188 4.41 70.7 68.2 1.13 123.0
2023-08-15 13:00 2.40 16.67 191 4.32 70.5 68.4 0.99 125.0
2023-08-15 12:30 2.62 15.38 205 5.41 70.5 68.4 1.01 127.0
2023-08-15 12:00 2.40 16.67 192 5.43 70.5 68.2 1.05 121.0
2023-08-15 11:30 2.40 16.67 195 6.16 70.5 67.8 0.97 123.0
2023-08-15 11:00 2.59 16.67 204 7.22 70.5 67.5 0.95 123.0
2023-08-15 10:30 2.33 16.67 194 6.81 70.3 67.8 0.91 125.0
2023-08-15 10:00 2.40 16.67 204 7.08 70.2 67.6 0.91 124.0
2023-08-15 09:30 2.36 12.50 214 7.33 70.2 67.6 0.87 127.0
2023-08-15 09:00 2.33 16.67 201 7.94 70.2 67.6 0.91 129.0
2023-08-15 08:30 2.30 16.67 196 7.97 70.2 67.5 0.93 129.0
2023-08-15 08:00 2.33 16.67 201 8.12 70.2 67.6 0.99 135.0
2023-08-15 07:30 2.23 16.67 199 7.81 70.2 67.6 0.97 138.0
2023-08-15 07:00 2.33 16.67 204 8.27 70.3 67.5 0.93 135.0
2023-08-15 06:30 2.17 16.67 194 7.33 70.2 67.3 0.91 140.0
2023-08-15 06:00 2.43 16.67 203 8.11 70.5 66.9 0.95 142.0
2023-08-15 05:30 2.59 16.67 194 8.63 70.3 67.1 0.89 143.0
2023-08-15 05:00 2.40 16.67 199 7.95 70.5 67.3 0.97 143.0
2023-08-15 04:30 2.40 16.67 197 7.55 70.5 67.3 0.97 142.0
2023-08-15 04:00 2.40 16.67 207 7.50 70.5 67.6 0.91 144.0
2023-08-15 03:30 2.69 16.67 203 8.31 70.5 67.8 0.97 146.0
2023-08-15 03:00 2.33 16.67 203 6.86 70.5 67.6 0.91 147.0
2023-08-15 02:30 2.46 16.67 202 7.15 70.7 67.8 1.01 150.0
2023-08-15 02:00 2.56 16.67 196 7.42 70.9 67.5 1.01 150.0
2023-08-15 01:30 2.59 16.67 207 6.97 70.9 67.5 0.99 150.0
2023-08-15 01:00 2.43 16.67 202 6.21 70.9 67.5 1.01 153.0
2023-08-15 00:30 2.56 16.67 201 6.35 70.9 67.3 1.09 151.0
2023-08-15 00:00 2.72 13.33 215 6.62 71.1 66.9 1.05 149.0
2023-08-14 23:30 2.56 16.67 200 5.84 71.1 67.1 1.11 148.0
2023-08-14 23:00 2.59 16.67 204 5.76 71.2 67.3 1.07 146.0
2023-08-14 22:30 2.89 16.67 198 6.17 71.4 67.3 1.15 149.0
2023-08-14 22:00 2.79 16.67 196 5.56 71.2 67.1 1.13 148.0
2023-08-14 21:30 2.92 16.67 205 5.15 71.6 66.9 1.15 146.0
2023-08-14 21:00 3.25 16.67 202 5.50 71.6 66.7 1.21 148.0
2023-08-14 20:30 3.44 16.67 203 5.29 71.8 67.1 1.26 147.0
2023-08-14 20:00 3.02 16.67 198 4.48 71.8 67.5 1.22 148.0
2023-08-14 19:30 3.61 16.67 204 5.28 71.8 67.3 1.26 142.0
2023-08-14 19:00 3.28 16.67 198 4.69 71.8 68.0 1.24 140.0
2023-08-14 18:30 3.08 13.33 213 4.20 72.0 68.7 1.26 139.0
2023-08-14 18:00 3.08 16.67 198 4.66 72.0 68.9 1.28 138.0
2023-08-14 17:30 2.89 16.67 185 4.63 72.0 68.9 1.26 135.0
2023-08-14 17:00 2.69 16.67 189 4.67 72.0 68.5 1.24 133.0
2023-08-14 16:30 2.62 16.67 198 5.02 72.1 68.2 1.22 133.0
2023-08-14 16:00 2.36 16.67 203 4.60 72.0 67.6 1.19 130.0
2023-08-14 15:30 2.72 18.18 191 6.02 72.0 68.0 1.26 125.0
2023-08-14 15:00 2.49 16.67 192 5.26 72.1 68.2 1.13 125.0
2023-08-14 14:30 2.62 16.67 201 5.65 72.1 67.8 1.13 123.0
2023-08-14 14:00 2.72 18.18 190 5.76 72.1 68.2 1.07 121.0
2023-08-14 13:30 2.85 18.18 191 6.16 72.1 68.0 1.03 120.0
2023-08-14 13:00 2.43 18.18 191 5.26 72.3 68.2 1.01 119.0
2023-08-14 12:30 2.56 18.18 197 5.74 72.3 68.4 0.93 118.0
2023-08-14 12:00 2.69 16.67 197 6.09 72.3 68.4 0.86 116.0
2023-08-14 11:30 2.66 18.18 187 6.66 72.1 68.7 0.80 116.0
2023-08-14 11:00 2.20 14.29 199 6.32 72.1 69.1 0.72 116.0
2023-08-14 10:30 2.43 18.18 185 7.95 72.0 68.7 0.68 114.0
2023-08-14 10:00 2.53 18.18 193 8.20 72.0 68.2 0.68 124.0
2023-08-14 09:30 2.76 14.29 210 8.64 71.8 68.0 0.58 125.0
2023-08-14 09:00 2.95 18.18 196 9.26 71.8 67.5 0.62 131.0
2023-08-14 08:30 2.79 14.29 210 8.61 71.8 67.3 0.62 129.0
2023-08-14 08:00 2.76 18.18 195 8.77 71.8 67.3 0.62 134.0
2023-08-14 07:30 2.76 18.18 200 9.12 71.8 66.9 0.74 141.0
2023-08-14 07:00 2.89 18.18 198 9.57 71.8 66.7 0.72 143.0
2023-08-14 06:30 2.62 18.18 198 8.96 71.8 66.7 0.70 145.0
2023-08-14 06:00 2.72 14.29 208 9.11 71.8 66.7 0.66 143.0
2023-08-14 05:30 2.43 14.29 211 8.39 71.8 66.7 0.74 147.0
2023-08-14 05:00 2.62 18.18 199 8.64 71.8 66.7 0.72 145.0
2023-08-14 04:30 2.49 14.29 214 8.10 72.0 66.7 0.74 149.0
2023-08-14 04:00 2.49 18.18 198 8.37 72.0 66.9 0.76 146.0
2023-08-14 03:30 2.76 14.29 209 8.59 72.0 67.1 0.84 146.0
2023-08-14 03:00 2.72 14.29 213 8.51 72.0 67.1 0.76 152.0
2023-08-14 02:30 2.62 18.18 204 8.25 72.0 67.3 0.76 152.0
2023-08-14 02:00 2.66 18.18 206 7.85 72.0 67.1 0.74 154.0
2023-08-14 01:30 3.08 18.18 199 8.76 72.0 67.3 0.80 153.0
2023-08-14 01:00 2.79 18.18 200 8.12 71.8 67.3 0.84 149.0
2023-08-14 00:30 3.15 18.18 197 8.51 71.6 67.1 0.78 147.0
2023-08-14 00:00 2.92 14.29 209 7.66 71.6 67.1 0.84 152.0
2023-08-13 23:30 3.15 18.18 197 8.15 71.6 67.1 0.87 151.0
2023-08-13 23:00 2.79 18.18 197 6.83 71.6 67.1 0.91 153.0
2023-08-13 22:30 2.92 18.18 201 7.04 71.4 67.1 0.91 152.0
2023-08-13 22:00 3.15 18.18 193 6.96 71.2 67.3 0.93 151.0
2023-08-13 21:30 3.08 15.38 209 6.35 71.2 67.1 0.95 150.0
2023-08-13 21:00 3.22 14.29 204 6.75 71.1 67.3 0.97 145.0
2023-08-13 20:30 2.95 14.29 209 5.65 71.1 67.5 0.91 147.0
2023-08-13 20:00 3.02 15.38 207 5.76 70.9 67.3 0.99 141.0
2023-08-13 19:30 2.99 15.38 203 5.64 70.9 67.3 0.97 140.0
2023-08-13 19:00 2.62 15.38 207 5.46 70.5 67.1 0.93 143.0
2023-08-13 18:30 2.72 15.38 198 6.48 70.3 66.9 0.99 139.0
2023-08-13 18:00 2.82 15.38 204 7.13 70.2 67.3 0.97 134.0
2023-08-13 17:30 2.69 15.38 203 7.07 70.3 66.6 0.97 129.0
2023-08-13 17:00 2.62 15.38 207 6.81 70.3 66.6 1.05 127.0
2023-08-13 16:30 2.66 15.38 208 6.54 70.5 67.1 0.99 121.0
2023-08-13 16:00 2.82 18.18 195 6.98 70.5 67.6 1.09 118.0
2023-08-13 15:30 2.72 15.38 196 6.97 70.7 67.8 1.07 116.0
2023-08-13 15:00 2.92 15.38 206 7.39 70.9 68.5 1.09 112.0
2023-08-13 14:30 2.49 15.38 204 6.74 70.9 68.9 1.11 107.0
2023-08-13 14:00 2.72 15.38 203 7.18 70.9 68.9 0.99 106.0
2023-08-13 13:30 2.56 15.38 202 6.43 70.7 68.4 0.89 104.0
2023-08-13 13:00 2.62 15.38 207 6.09 70.9 68.0 0.84 107.0
2023-08-13 12:30 2.69 15.38 207 6.01 70.9 68.2 0.78 103.0
2023-08-13 12:00 2.72 15.38 205 6.26 70.7 68.2 0.74 100.0
2023-08-13 11:30 2.79 14.29 210 6.36 70.7 68.0 0.64 96.0
2023-08-13 11:00 2.43 15.38 203 6.34 70.5 68.5 0.47 100.0
2023-08-13 10:30 2.69 14.29 219 8.23 70.5 68.9 0.51 95.0
2023-08-13 10:00 2.79 15.38 206 8.55 70.3 68.9 0.33 108.0
2023-08-13 09:30 2.76 15.38 212 7.93 70.7 68.5 0.27 105.0
2023-08-13 09:00 2.82 15.38 209 7.92 70.9 68.4 0.27 108.0
2023-08-13 08:30 2.62 14.29 211 7.73 70.9 68.4 0.23 111.0
2023-08-13 08:00 2.69 14.29 212 7.47 70.9 68.2 0.25 119.0
2023-08-13 07:30 2.72 15.38 206 7.46 71.1 68.2 0.31 125.0
2023-08-13 07:00 2.59 15.38 211 7.33 71.1 68.2 0.27 131.0
2023-08-13 06:30 2.92 15.38 213 8.38 71.1 68.4 0.31 154.0
2023-08-13 06:00 2.62 15.38 203 7.53 70.9 68.4 0.37 149.0
2023-08-13 05:30 2.53 14.29 206 7.12 70.9 68.2 0.33 145.0
2023-08-13 05:00 2.62 15.38 205 7.41 70.7 68.4 0.25 162.0
2023-08-13 04:30 2.72 15.38 211 7.46 70.5 68.4 0.35 157.0
2023-08-13 04:00 2.62 15.38 211 7.06 70.5 68.5 0.35 160.0
2023-08-13 03:30 2.82 15.38 205 7.37 70.3 68.5 0.37 159.0
2023-08-13 03:00 2.76 15.38 207 6.64 70.2 68.5 0.41 158.0
2023-08-13 02:30 2.49 14.29 202 5.82 70.2 68.7 0.35 155.0
2023-08-13 02:00 2.69 15.38 210 6.15 70.2 68.7 0.41 155.0
2023-08-13 01:30 2.85 15.38 209 6.67 70.2 68.9 0.39 164.0
2023-08-13 01:00 2.85 15.38 207 6.38 70.2 68.7 0.39 156.0
2023-08-13 00:30 3.05 15.38 213 7.01 70.2 68.7 0.56 153.0
2023-08-13 00:00 2.82 15.38 205 6.20 70.2 68.5 0.54 154.0
2023-08-12 23:30 3.02 15.38 208 6.42 70.2 68.5 0.54 156.0
2023-08-12 23:00 2.76 15.38 209 5.58 70.2 68.7 0.52 155.0
2023-08-12 22:30 2.99 15.38 203 6.22 70.0 68.5 0.52 152.0
2023-08-12 22:00 2.82 15.38 208 5.91 70.0 68.2 0.51 148.0
2023-08-12 21:30 2.89 15.38 209 6.46 70.2 68.5 0.49 145.0
2023-08-12 21:00 2.92 15.38 204 6.57 70.2 68.5 0.47 144.0
2023-08-12 20:30 2.59 15.38 204 5.68 70.3 68.4 0.49 144.0
2023-08-12 20:00 2.69 15.38 218 6.10 70.5 68.5 0.51 136.0
2023-08-12 19:30 2.89 15.38 204 6.35 70.5 68.5 0.60 135.0
2023-08-12 19:00 2.85 15.38 220 6.70 70.5 68.9 0.60 134.0
2023-08-12 18:30 2.82 15.38 212 6.36 70.7 68.7 0.74 133.0
2023-08-12 18:00 2.66 15.38 200 6.58 70.5 68.4 0.70 137.0
2023-08-12 17:30 2.53 15.38 209 6.43 70.5 68.4 0.66 132.0
2023-08-12 17:00 2.62 15.38 213 6.56 70.5 68.4 0.74 130.0
2023-08-12 16:30 2.82 15.38 213 7.37 70.5 68.0 0.74 119.0
2023-08-12 16:00 2.56 15.38 204 6.34 70.5 68.0 0.70 120.0
2023-08-12 15:30 2.76 16.67 200 6.48 70.5 67.8 0.78 114.0
2023-08-12 15:00 2.76 15.38 211 6.23 70.7 67.8 0.74 112.0
2023-08-12 14:30 2.59 16.67 205 6.32 70.7 67.6 0.66 108.0
2023-08-12 14:00 2.62 15.38 215 6.40 70.5 67.8 0.64 101.0
2023-08-12 13:30 2.36 15.38 208 5.66 70.5 67.8 0.68 97.0
2023-08-12 13:00 2.43 16.67 206 6.00 70.7 68.0 0.62 90.0
2023-08-12 12:30 2.36 15.38 226 6.13 70.9 68.2 0.51 93.0
2023-08-12 12:00 2.56 15.38 215 6.90 70.9 68.4 0.52 86.0
2023-08-12 11:30 2.36 15.38 203 6.60 70.9 68.7 0.39 83.0
2023-08-12 11:00 2.62 16.67 207 7.46 70.9 69.1 0.31 86.0
2023-08-12 10:30 2.69 15.38 212 8.00 70.7 68.7 0.27 88.0
2023-08-12 10:00 2.56 16.67 213 8.77 70.7 69.3 0.27 91.0
2023-08-12 09:30 2.26 16.67 211 8.48 70.7 69.3 0.21 90.0
2023-08-12 09:00 2.33 16.67 211 8.52 70.5 69.6 0.29 98.0
2023-08-12 08:30 2.59 15.38 219 9.09 70.5 69.3 0.17 115.0
2023-08-12 08:00 2.53 16.67 219 9.04 70.7 69.1 0.17 128.0
2023-08-12 07:30 2.72 16.67 219 9.18 70.7 69.1 0.12 140.0
2023-08-12 07:00 2.62 15.38 213 8.84 70.9 68.9 0.12 135.0
2023-08-12 06:30 2.56 16.67 215 8.58 70.9 68.9 0.14 154.0
2023-08-12 06:00 2.56 16.67 212 8.76 70.9 68.9 0.16 140.0
2023-08-12 05:30 2.33 12.50 183 7.89 70.9 68.9 0.12 138.0
2023-08-12 05:00 2.79 16.67 220 9.18 70.9 68.9 0.12 135.0
2023-08-12 04:30 2.46 16.67 212 7.82 70.9 68.9 0.19 165.0
2023-08-12 04:00 2.82 16.67 216 8.09 70.9 68.9 0.16 133.0
2023-08-12 03:30 2.59 13.33 181 7.39 70.9 68.9 0.21 151.0
2023-08-12 03:00 2.82 16.67 208 7.36 70.9 68.9 0.27 156.0
2023-08-12 02:30 2.59 16.67 216 6.72 70.9 68.9 0.21 167.0
2023-08-12 02:00 2.82 12.50 180 6.65 70.9 68.7 0.25 166.0
2023-08-12 01:30 2.72 13.33 179 6.36 70.9 68.7 0.17 175.0
2023-08-12 01:00 2.89 16.67 220 6.67 70.9 68.7 0.27 177.0
2023-08-12 00:30 2.76 13.33 186 6.36 70.9 68.4 0.27 162.0
2023-08-12 00:00 2.72 16.67 209 6.39 71.1 68.4 0.29 170.0
2023-08-11 23:30 2.69 16.67 215 6.09 71.1 68.4 0.25 164.0
2023-08-11 23:00 2.99 16.67 212 6.56 71.2 68.4 0.25 163.0
2023-08-11 22:30 2.95 16.67 210 6.60 71.4 68.5 0.33 158.0
2023-08-11 22:00 2.76 16.67 206 6.29 71.4 68.5 0.33 151.0
2023-08-11 21:30 3.02 16.67 210 7.03 71.6 68.5 0.33 165.0
2023-08-11 21:00 2.82 12.50 179 6.12 71.6 68.5 0.43 162.0
2023-08-11 20:30 2.85 16.67 212 6.62 71.6 68.4 0.37 149.0
2023-08-11 20:00 2.85 12.50 173 6.65 71.6 68.5 0.25 137.0
2023-08-11 19:30 3.08 16.67 196 7.20 71.8 68.9 0.37 147.0
2023-08-11 19:00 2.66 14.29 170 6.55 71.8 69.6 0.37 153.0
2023-08-11 18:30 2.89 14.29 170 7.52 71.8 68.9 0.41 150.0
2023-08-11 18:00 2.95 16.67 210 7.74 72.0 69.3 0.43 154.0
2023-08-11 17:30 2.72 14.29 176 7.04 72.0 69.4 0.43 136.0
2023-08-11 17:00 2.69 16.67 205 6.87 72.0 69.1 0.45 131.0
2023-08-11 16:30 2.72 12.50 176 6.78 71.8 68.7 0.43 133.0
2023-08-11 16:00 3.08 16.67 204 7.68 71.8 68.7 0.54 125.0
2023-08-11 15:30 2.85 12.50 175 6.55 71.8 68.5 0.49 133.0
2023-08-11 15:00 2.85 16.67 202 6.80 72.0 68.5 0.49 122.0
2023-08-11 14:30 2.79 12.50 167 6.55 71.8 68.4 0.45 123.0
2023-08-11 14:00 3.05 12.50 174 6.92 71.8 68.2 0.58 120.0
2023-08-11 13:30 3.05 16.67 206 6.93 71.8 67.8 0.43 118.0
2023-08-11 13:00 2.76 13.33 182 6.55 71.8 67.6 0.49 117.0
2023-08-11 12:30 2.89 12.50 171 7.12 71.6 67.6 0.47 115.0
2023-08-11 12:00 2.82 12.50 168 6.89 71.6 67.5 0.41 113.0
2023-08-11 11:30 2.85 13.33 176 7.38 71.4 67.6 0.43 123.0
2023-08-11 11:00 2.76 13.33 179 7.65 71.4 67.5 0.37 134.0
2023-08-11 10:30 2.82 13.33 178 7.76 71.2 67.5 0.35 134.0
2023-08-11 10:00 2.62 12.50 175 7.32 71.2 0.31 129.0
2023-08-11 09:30 2.62 12.50 174 6.88 71.2 65.5 0.37 129.0
2023-08-11 09:00 2.82 14.29 170 7.53 71.2 66.9 0.35 128.0
2023-08-11 08:30 2.69 13.33 175 6.89 71.2 66.7 0.47 118.0
2023-08-11 08:00 2.69 12.50 173 6.97 71.4 66.0 0.43 123.0
2023-08-11 07:30 2.72 14.29 178 7.17 71.6 66.7 0.37 111.0
2023-08-11 07:00 2.82 14.29 179 7.32 71.8 66.4 0.37 120.0
2023-08-11 06:30 2.92 13.33 175 7.88 71.8 66.6 0.33 118.0
2023-08-11 06:00 2.95 13.33 176 7.98 71.8 66.9 0.29 129.0
2023-08-11 05:30 2.79 13.33 176 7.46 71.8 67.5 0.31 132.0
2023-08-11 05:00 2.95 13.33 176 7.79 71.8 66.4 0.31 129.0
2023-08-11 04:30 2.85 13.33 181 7.48 71.8 67.1 0.31 138.0
2023-08-11 04:00 2.89 13.33 179 7.65 72.0 67.8 0.29 137.0
2023-08-11 03:30 3.02 13.33 178 7.86 72.0 68.0 0.17 135.0
2023-08-11 03:00 2.79 13.33 184 8.01 72.0 68.2 0.23 138.0
2023-08-11 02:30 2.79 13.33 182 8.07 72.1 68.0 0.21 141.0
2023-08-11 02:00 2.89 14.29 183 7.88 72.1 68.2 0.27 139.0
2023-08-11 01:30 2.85 13.33 179 7.70 72.1 68.4 0.25 142.0
2023-08-11 01:00 2.92 13.33 180 7.83 72.1 68.5 0.21 143.0
2023-08-11 00:30 2.82 14.29 176 8.04 72.1 68.5 0.33 136.0
2023-08-11 00:00 2.79 13.33 179 8.06 72.1 68.7 0.27 146.0
2023-08-10 23:30 2.82 14.29 179 8.32 72.1 68.7 0.33 146.0
2023-08-10 23:00 2.92 14.29 179 8.63 72.1 68.7 0.31 151.0
2023-08-10 22:30 2.79 10.00 194 8.22 72.1 68.7 0.33 149.0
2023-08-10 22:00 2.66 13.33 180 8.36 72.1 68.4 0.41 148.0
2023-08-10 21:30 2.76 14.29 178 8.73 72.3 68.5 0.35 143.0
2023-08-10 21:00 2.82 10.53 180 8.72 72.1 68.4 0.41 143.0
2023-08-10 20:30 2.79 14.29 180 8.70 72.1 68.5 0.37 141.0
2023-08-10 20:00 2.82 11.11 183 8.54 72.3 68.7 0.43 144.0
2023-08-10 19:30 2.99 12.50 176 8.81 72.7 68.7 0.45 143.0
2023-08-10 19:00 2.66 14.29 168 7.90 72.7 69.3 0.52 140.0
2023-08-10 18:30 2.99 13.33 174 8.51 72.7 69.3 0.56 137.0
2023-08-10 18:00 2.99 14.29 180 8.38 72.5 69.1 0.60 138.0
2023-08-10 17:30 2.69 13.33 178 8.01 72.5 69.1 0.64 130.0
2023-08-10 17:00 2.66 14.29 181 8.23 72.9 69.3 0.62 125.0
2023-08-10 16:30 2.92 14.29 180 8.90 73.0 69.3 0.68 122.0
2023-08-10 16:00 2.82 14.29 173 8.58 73.2 69.8 0.60 123.0
2023-08-10 15:30 2.79 14.29 173 9.12 73.2 70.2 0.54 127.0
2023-08-10 15:00 2.49 14.29 181 8.95 73.4 70.0 0.56 126.0
2023-08-10 14:30 2.72 14.29 184 9.34 73.6 70.2 0.49 123.0
2023-08-10 14:00 2.69 10.53 187 9.41 73.9 70.3 0.49 120.0
2023-08-10 13:30 2.62 10.53 185 9.42 73.9 70.7 0.49 116.0
2023-08-10 13:00 2.69 14.29 184 9.61 73.9 70.5 0.45 116.0
2023-08-10 12:30 2.69 14.29 178 9.63 74.1 70.3 0.49 106.0
2023-08-10 12:00 2.82 10.53 184 9.80 74.8 70.2 0.49 100.0
2023-08-10 11:30 2.69 10.53 186 9.54 74.1 70.3 0.43 96.0
2023-08-10 11:00 2.56 10.53 188 9.31 72.7 70.0 0.35 105.0
2023-08-10 10:30 2.62 10.53 188 9.25 71.8 69.8 0.35 98.0
2023-08-10 10:00 2.59 10.53 187 9.14 71.4 69.3 0.31 81.0
2023-08-10 09:30 2.79 10.53 194 9.32 71.2 69.1 0.27 91.0
2023-08-10 09:00 2.72 14.29 178 9.63 71.2 68.7 0.33 92.0
2023-08-10 08:30 2.72 15.38 184 9.64 71.2 68.5 0.33 83.0
2023-08-10 08:00 2.72 10.00 192 9.25 71.2 68.7 0.29 94.0
2023-08-10 07:30 2.79 11.76 180 9.18 71.4 68.9 0.29 99.0
2023-08-10 07:00 2.82 10.00 194 8.98 71.4 68.9 0.21 96.0
2023-08-10 06:30 2.95 11.76 183 9.22 71.4 0.21 108.0
2023-08-10 06:00 3.08 10.53 194 9.33 71.4 65.5 0.25 116.0
2023-08-10 05:30 2.62 15.38 186 8.90 71.6 66.9 0.29 135.0
2023-08-10 05:00 2.85 11.76 191 9.17 71.6 66.4 0.19 138.0
2023-08-10 04:30 2.76 10.53 193 8.67 71.6 67.5 0.23 139.0
2023-08-10 04:00 3.02 10.53 200 8.99 71.6 68.2 0.23 137.0
2023-08-10 03:30 2.79 11.76 186 8.35 71.6 68.0 0.27 140.0
2023-08-10 03:00 2.79 11.11 199 8.44 71.4 68.0 0.31 149.0
2023-08-10 02:30 2.92 11.11 191 8.35 71.4 68.0 0.33 137.0
2023-08-10 02:00 2.95 10.53 196 8.38 71.2 68.2 0.31 143.0
2023-08-10 01:30 2.72 11.11 197 7.78 71.2 68.4 0.37 142.0
2023-08-10 01:00 2.85 11.76 192 8.25 71.1 68.4 0.43 140.0
2023-08-10 00:30 2.79 10.00 191 7.99 71.1 67.8 0.52 137.0
2023-08-10 00:00 2.79 12.50 185 8.12 71.1 68.0 0.52 132.0
2023-08-09 23:30 2.95 12.50 185 8.23 71.1 68.0 0.49 132.0
2023-08-09 23:00 2.89 11.76 185 8.07 71.1 67.8 0.52 127.0
2023-08-09 22:30 3.08 12.50 185 8.17 71.2 67.6 0.60 133.0
2023-08-09 22:00 3.25 14.29 187 8.42 71.2 67.6 0.56 125.0
2023-08-09 21:30 3.15 13.33 174 8.25 71.2 67.8 0.60 125.0
2023-08-09 21:00 3.08 11.11 191 7.96 71.2 67.6 0.60 124.0
2023-08-09 20:30 3.28 11.11 187 8.20 71.2 67.6 0.66 119.0
2023-08-09 20:00 3.12 11.11 184 7.97 71.2 67.8 0.62 120.0
2023-08-09 19:30 3.41 12.50 175 8.60 71.4 68.2 0.56 122.0
2023-08-09 19:00 3.28 11.76 186 8.71 71.6 68.7 0.58 123.0
2023-08-09 18:30 3.38 10.53 186 8.71 71.8 68.9 0.62 116.0
2023-08-09 18:00 3.02 11.11 182 8.44 71.6 68.9 0.62 121.0
2023-08-09 17:30 3.28 11.76 181 8.75 71.4 70.3 0.60 122.0
2023-08-09 17:00 3.22 10.53 192 8.67 71.2 68.5 0.52 123.0
2023-08-09 16:30 3.12 11.11 190 8.40 71.6 69.3 0.60 125.0
2023-08-09 16:00 3.35 12.50 184 8.77 72.0 70.0 0.52 123.0
2023-08-09 15:30 3.61 11.76 184 9.33 72.3 70.9 0.52 114.0
2023-08-09 15:00 3.05 11.11 187 8.63 72.3 70.2 0.49 121.0
2023-08-09 14:30 3.08 11.11 182 8.41 72.3 70.2 0.51 124.0
2023-08-09 14:00 3.25 10.53 187 9.06 72.5 70.3 0.52 118.0
2023-08-09 13:30 3.08 11.11 182 8.91 72.5 70.2 0.49 116.0
2023-08-09 13:00 3.05 12.50 173 9.11 72.7 70.2 0.37 125.0
2023-08-09 12:30 3.08 11.76 179 9.67 72.7 70.2 0.43 121.0
2023-08-09 12:00 3.12 10.00 185 9.48 72.5 70.0 0.37 122.0
2023-08-09 11:30 3.15 10.53 184 9.89 72.5 70.2 0.43 118.0
2023-08-09 11:00 3.22 10.53 186 10.07 72.1 70.0 0.47 110.0
2023-08-09 10:30 3.18 12.50 183 10.21 72.0 69.8 0.43 108.0
2023-08-09 10:00 3.18 11.11 186 9.87 71.8 69.6 0.37 99.0
2023-08-09 09:30 2.95 12.50 183 9.66 71.6 69.8 0.41 100.0
2023-08-09 09:00 3.41 11.76 183 10.04 71.2 69.1 0.33 109.0
2023-08-09 08:30 3.22 10.53 185 9.86 71.2 69.1 0.19 106.0
2023-08-09 08:00 3.02 11.11 195 9.50 71.4 69.3 0.27 95.0
2023-08-09 07:30 3.25 13.33 178 10.00 71.4 69.1 0.14 100.0
2023-08-09 07:00 3.18 12.50 181 10.01 71.4 69.1 0.17 108.0
2023-08-09 06:30 3.28 13.33 183 10.28 71.4 68.9 0.14 127.0
2023-08-09 06:00 3.28 12.50 182 9.96 71.6 68.9 0.10 111.0
2023-08-09 05:30 2.95 13.33 178 9.54 71.6 68.7 0.12 138.0
2023-08-09 05:00 3.02 13.33 182 9.83 71.6 68.5 0.17 137.0
2023-08-09 04:30 3.28 12.50 184 10.13 71.6 68.7 0.12 139.0
2023-08-09 04:00 2.79 13.33 182 9.46 71.8 68.7 0.16 115.0
2023-08-09 03:30 3.08 10.53 185 10.05 71.8 68.7 0.17 114.0
2023-08-09 03:00 3.25 12.50 185 10.26 71.8 68.7 0.12 142.0
2023-08-09 02:30 2.79 11.76 191 9.78 71.8 68.7 0.19 135.0
2023-08-09 02:00 2.85 13.33 179 10.25 71.8 68.7 0.25 136.0
2023-08-09 01:30 2.95 11.11 193 10.04 71.8 68.7 0.25 131.0
2023-08-09 01:00 2.99 11.76 188 10.19 71.8 68.7 0.25 143.0
2023-08-09 00:30 3.12 13.33 179 10.25 71.8 68.7 0.27 136.0
2023-08-09 00:00 2.99 12.50 183 9.90 71.8 68.7 0.29 130.0
2023-08-08 23:30 2.92 11.76 186 9.84 72.0 68.5 0.35 135.0
2023-08-08 23:00 2.79 11.76 194 9.62 72.1 68.5 0.31 127.0
2023-08-08 22:30 3.05 13.33 176 9.72 72.3 68.7 0.35 132.0
2023-08-08 22:00 3.05 13.33 178 9.88 72.5 68.9 0.39 124.0
2023-08-08 21:30 2.95 13.33 181 9.49 72.5 68.9 0.43 125.0
2023-08-08 21:00 2.82 13.33 177 9.57 72.7 69.1 0.41 127.0
2023-08-08 20:30 2.92 12.50 187 9.46 72.7 69.1 0.41 125.0
2023-08-08 20:00 2.99 13.33 176 9.94 72.9 69.3 0.39 122.0
2023-08-08 19:30 3.25 13.33 175 10.01 73.2 69.4 0.39 114.0
2023-08-08 19:00 3.18 13.33 178 9.95 73.4 70.2 0.33 120.0
2023-08-08 18:30 2.89 11.11 181 9.70 73.6 70.9 0.33 125.0
2023-08-08 18:00 2.92 14.29 180 9.75 73.9 71.1 0.33 131.0
2023-08-08 17:30 3.44 14.29 175 9.86 73.9 71.1 0.33 145.0
2023-08-08 17:00 3.54 13.33 174 10.26 73.9 71.1 0.37 137.0
2023-08-08 16:30 3.18 14.29 173 9.92 74.3 71.2 0.45 129.0
2023-08-08 16:00 3.05 14.29 177 9.75 73.9 71.1 0.41 130.0
2023-08-08 15:30 3.05 10.53 181 9.93 73.8 71.8 0.41 131.0
2023-08-08 15:00 2.82 14.29 173 9.59 72.9 70.9 0.49 124.0
2023-08-08 14:30 2.99 14.29 174 9.66 72.5 69.4 0.43 119.0
2023-08-08 14:00 3.18 14.29 170 10.09 72.9 69.8 0.35 114.0
2023-08-08 13:30 3.35 14.29 178 10.49 73.0 70.0 0.35 110.0
2023-08-08 13:00 3.02 14.29 169 10.21 73.2 70.3 0.31 109.0
2023-08-08 12:30 3.05 10.53 178 10.32 73.2 71.1 0.25 111.0
2023-08-08 12:00 3.05 14.29 178 10.50 73.4 70.9 0.33 93.0
2023-08-08 11:30 2.95 11.11 189 10.15 73.4 70.5 0.33 98.0
2023-08-08 11:00 3.05 14.29 174 10.66 73.2 70.5 0.33 87.0
2023-08-08 10:30 2.85 14.29 178 9.98 73.0 70.3 0.33 88.0
2023-08-08 10:00 3.02 14.29 175 10.02 72.5 70.3 0.33 99.0
2023-08-08 09:30 3.25 14.29 178 10.24 72.3 70.0 0.37 90.0
2023-08-08 09:00 2.95 14.29 177 9.90 72.1 69.3 0.33 88.0
2023-08-08 08:30 3.05 14.29 177 10.05 72.0 69.6 0.29 99.0
2023-08-08 08:00 3.05 14.29 177 9.37 72.0 68.9 0.21 107.0
2023-08-08 07:30 2.85 14.29 178 8.84 72.0 68.2 0.21 93.0
2023-08-08 07:00 2.72 13.33 179 8.60 72.0 67.6 0.14 107.0
2023-08-08 06:30 3.08 13.33 181 9.91 72.0 67.3 0.16 108.0
2023-08-08 06:00 2.95 11.11 184 10.36 72.0 66.9 0.17 121.0
2023-08-08 05:30 3.15 14.29 183 10.69 72.1 66.7 0.14 138.0
2023-08-08 05:00 2.95 14.29 179 10.09 72.1 66.0 0.21 146.0
2023-08-08 04:30 2.92 11.11 189 9.59 72.1 65.8 0.23 164.0
2023-08-08 04:00 2.95 14.29 179 9.88 72.1 65.7 0.27 158.0
2023-08-08 03:30 2.95 14.29 181 9.50 72.1 65.7 0.27 149.0
2023-08-08 03:00 3.02 14.29 183 9.57 72.1 65.5 0.27 144.0
2023-08-08 02:30 3.08 14.29 182 9.93 72.1 66.0 0.33 135.0
2023-08-08 02:00 2.72 14.29 181 9.66 72.1 66.2 0.23 132.0
2023-08-08 01:30 2.76 14.29 178 10.28 72.1 66.7 0.31 143.0
2023-08-08 01:00 2.69 15.38 183 10.71 72.1 67.3 0.35 145.0
2023-08-08 00:30 2.53 14.29 186 10.16 72.3 67.3 0.37 148.0
2023-08-08 00:00 2.36 14.29 179 9.87 72.3 67.1 0.35 133.0
2023-08-07 23:30 2.56 13.33 184 10.17 72.3 67.1 0.41 134.0
2023-08-07 23:00 2.46 13.33 177 10.13 72.3 66.9 0.43 130.0
2023-08-07 22:30 2.53 14.29 175 9.83 72.5 67.1 0.45 124.0
2023-08-07 22:00 2.46 14.29 182 9.38 72.5 67.3 0.37 122.0
2023-08-07 21:30 2.33 15.38 181 8.86 72.5 67.5 0.31 131.0
2023-08-07 21:00 2.62 11.76 183 9.01 72.5 67.3 0.31 129.0
2023-08-07 20:30 2.53 15.38 184 8.85 72.7 67.6 0.39 125.0
2023-08-07 20:00 2.33 14.29 177 8.10 72.7 68.0 0.21 118.0
2023-08-07 19:30 2.56 14.29 181 8.91 72.9 68.5 0.43 118.0
2023-08-07 19:00 2.43 14.29 180 8.94 72.9 69.1 0.29 111.0
2023-08-07 18:30 2.62 11.11 178 9.50 73.0 69.4 0.33 114.0
2023-08-07 18:00 2.53 14.29 185 8.67 73.4 69.6 0.29 114.0
2023-08-07 17:30 2.53 14.29 187 8.29 73.4 69.6 0.37 122.0
2023-08-07 17:00 2.56 11.11 186 8.69 73.4 69.8 0.43 112.0
2023-08-07 16:30 2.66 15.38 172 9.23 73.6 69.6 0.51 115.0
2023-08-07 16:00 2.56 15.38 189 9.23 73.6 69.4 0.60 113.0
2023-08-07 15:30 2.56 13.33 173 9.41 73.6 69.1 0.58 111.0
2023-08-07 15:00 2.46 11.76 188 9.58 73.4 68.9 0.66 111.0
2023-08-07 14:30 2.46 14.29 180 9.33 73.4 68.7 0.60 95.0
2023-08-07 14:00 2.26 15.38 183 8.74 72.1 68.5 0.52 98.0
2023-08-07 13:30 2.20 15.38 167 8.27 72.1 68.2 0.52 91.0
2023-08-07 13:00 2.36 15.38 178 9.14 72.1 68.0 0.43 106.0
2023-08-07 12:30 2.30 13.33 183 9.11 72.3 67.8 0.37 102.0
2023-08-07 12:00 2.20 15.38 181 9.48 72.0 67.6 0.31 97.0
2023-08-07 11:30 2.23 15.38 182 9.25 72.7 67.3 0.39 100.0
2023-08-07 11:00 2.46 15.38 180 10.06 71.6 67.3 0.41 100.0
2023-08-07 10:30 2.13 11.11 186 8.97 71.1 66.7 0.43 103.0
2023-08-07 10:00 2.30 15.38 182 9.50 70.9 65.8 0.35 104.0
2023-08-07 09:30 2.20 15.38 179 8.76 70.5 65.3 0.33 108.0
2023-08-07 09:00 2.30 15.38 186 8.82 70.3 64.2 0.37 110.0
2023-08-07 08:30 2.36 15.38 182 8.85 70.3 63.7 0.31 111.0
2023-08-07 08:00 2.10 15.38 178 7.88 70.3 63.1 0.31 109.0
2023-08-07 07:30 2.36 15.38 183 8.32 70.3 63.1 0.25 121.0
2023-08-07 07:00 2.49 15.38 183 8.79 70.5 63.1 0.21 110.0
2023-08-07 06:30 2.43 15.38 183 8.59 70.5 63.5 0.12 128.0
2023-08-07 06:00 2.46 15.38 185 8.48 70.5 63.7 0.19 104.0
2023-08-07 05:30 2.53 15.38 187 8.38 70.7 63.7 0.19 108.0
2023-08-07 05:00 2.56 15.38 191 8.54 70.7 64.0 0.16 103.0
2023-08-07 04:30 2.53 14.29 191 8.16 70.7 64.8 0.16 87.0
2023-08-07 04:00 2.46 15.38 193 8.19 70.9 65.1 0.14 85.0
2023-08-07 03:30 2.59 15.38 184 8.57 70.9 65.8 0.12 73.0
2023-08-07 03:00 2.53 11.76 188 8.53 70.9 65.7 0.17 87.0
2023-08-07 02:30 2.36 12.50 185 8.65 71.1 65.8 0.14 103.0
2023-08-07 02:00 2.46 11.76 190 8.97 71.1 66.2 0.19 92.0
2023-08-07 01:30 2.17 11.76 184 8.48 71.1 66.6 0.14 134.0
2023-08-07 01:00 2.03 11.76 185 7.81 71.2 66.4 0.19 119.0
2023-08-07 00:30 2.13 16.67 186 8.07 71.2 66.2 0.23 140.0
2023-08-07 00:00 2.20 11.11 189 7.98 71.2 66.0 0.23 155.0
2023-08-06 23:30 2.00 12.50 189 7.49 71.2 65.8 0.17 169.0
2023-08-06 23:00 2.07 14.29 189 7.81 71.2 65.8 0.19 158.0
2023-08-06 22:30 2.07 12.50 190 7.23 71.2 65.1 0.23 148.0
2023-08-06 22:00 2.10 12.50 191 7.25 71.4 64.8 0.23 156.0
2023-08-06 21:30 2.26 12.50 185 7.44 71.2 64.9 0.31 158.0
2023-08-06 21:00 2.03 15.38 189 6.89 71.2 64.8 0.29 156.0
2023-08-06 20:30 2.07 14.29 191 6.66 71.2 64.9 0.41 147.0
2023-08-06 20:00 2.17 15.38 195 7.08 71.2 65.3 0.43 147.0
2023-08-06 19:30 2.23 16.67 188 6.90 71.1 65.1 0.37 145.0
2023-08-06 19:00 2.30 13.33 192 7.06 71.1 65.3 0.41 138.0
2023-08-06 18:30 2.33 16.67 197 6.99 71.1 65.5 0.19 119.0
2023-08-06 18:00 2.30 16.67 186 6.90 71.1 65.8 0.45 134.0
2023-08-06 17:30 2.46 15.38 193 7.20 71.1 66.2 0.43 134.0
2023-08-06 17:00 2.43 11.76 185 6.59 71.2 66.4 0.54 128.0
2023-08-06 16:30 2.40 8.70 279 6.60 71.4 66.7 0.52 117.0
2023-08-06 16:00 2.43 16.67 193 6.77 71.4 67.3 0.58 110.0
2023-08-06 15:30 2.40 15.38 193 6.82 72.0 67.8 0.62 110.0
2023-08-06 15:00 2.36 11.76 180 6.50 72.3 67.8 0.66 104.0
2023-08-06 14:30 2.40 16.67 189 6.90 72.5 68.9 0.58 107.0
2023-08-06 14:00 2.20 12.50 178 6.96 72.5 69.1 0.54 113.0
2023-08-06 13:30 2.17 16.67 194 6.84 72.3 69.1 0.60 107.0
2023-08-06 13:00 2.30 11.76 182 6.68 72.9 69.1 0.51 102.0
2023-08-06 12:30 2.20 16.67 198 7.02 72.7 69.1 0.45 99.0
2023-08-06 12:00 2.17 16.67 192 6.88 72.3 68.7 0.47 98.0
2023-08-06 11:30 2.23 14.29 193 7.00 72.0 67.5 0.43 96.0
2023-08-06 11:00 2.17 12.50 181 6.96 72.0 66.7 0.41 94.0
2023-08-06 10:30 2.17 16.67 203 7.09 71.8 66.0 0.39 90.0
2023-08-06 10:00 2.20 16.67 199 6.82 71.8 65.5 0.37 94.0
2023-08-06 09:30 2.20 13.33 193 6.76 71.6 65.1 0.35 92.0
2023-08-06 09:00 2.30 12.50 186 6.58 71.6 64.8 0.27 101.0
2023-08-06 08:30 2.36 16.67 197 6.47 71.4 64.0 0.25 109.0
2023-08-06 08:00 2.23 16.67 206 6.11 71.4 64.0 0.23 95.0
2023-08-06 07:30 2.20 16.67 197 6.12 71.4 64.2 0.23 108.0
2023-08-06 07:00 2.26 16.67 201 6.29 71.4 64.8 0.19 100.0
2023-08-06 06:30 2.43 13.33 194 6.61 71.4 64.8 0.12 114.0
2023-08-06 06:00 2.46 13.33 192 6.43 71.4 64.9 0.16 129.0
2023-08-06 05:30 2.43 16.67 205 6.20 71.6 65.1 0.16 121.0
2023-08-06 05:00 2.33 16.67 208 6.02 71.6 65.5 0.12 94.0
2023-08-06 04:30 2.36 14.29 195 6.07 71.6 65.8 0.08 108.0
2023-08-06 04:00 2.40 16.67 201 6.22 71.4 65.7 0.14 67.0
2023-08-06 03:30 2.43 13.33 191 6.63 71.4 66.2 0.14 80.0
2023-08-06 03:00 2.30 16.67 201 6.48 71.4 66.6 0.14 64.0
2023-08-06 02:30 2.30 13.33 190 6.55 71.6 66.7 0.04 95.0
2023-08-06 02:00 2.33 15.38 205 6.48 71.6 66.9 0.04 55.0
2023-08-06 01:30 2.17 16.67 207 6.15 71.6 66.9 0.04 57.0
2023-08-06 01:00 2.26 16.67 206 6.42 71.6 66.7 0.06 146.0
2023-08-06 00:30 2.23 18.18 202 6.37 71.6 67.3 0.10 163.0
2023-08-06 00:00 2.33 16.67 198 6.37 71.6 67.6 0.08 186.0
2023-08-05 23:30 2.30 13.33 185 6.26 71.8 67.6 0.10 175.0
2023-08-05 23:00 2.30 16.67 205 6.08 71.6 67.3 0.19 172.0
2023-08-05 22:30 2.30 16.67 201 5.81 71.8 67.5 0.19 183.0
2023-08-05 22:00 2.43 16.67 206 5.91 72.0 68.2 0.27 179.0
2023-08-05 21:30 2.26 16.67 208 5.76 72.0 67.6 0.39 181.0
2023-08-05 21:00 2.13 16.67 195 5.37 72.1 67.8 0.37 175.0
2023-08-05 20:30 2.23 16.67 205 5.37 72.0 68.2 0.49 154.0
2023-08-05 20:00 2.33 16.67 206 5.26 72.1 68.7 0.49 153.0
2023-08-05 19:30 2.23 16.67 206 5.18 72.1 69.3 0.54 147.0
2023-08-05 19:00 2.62 16.67 205 5.78 72.1 69.3 0.45 152.0
2023-08-05 18:30 2.62 16.67 193 5.39 72.1 69.3 0.51 151.0
2023-08-05 18:00 2.59 16.67 206 5.19 72.1 69.1 0.54 147.0
2023-08-05 17:30 2.49 16.67 199 4.77 72.3 69.1 0.51 142.0
2023-08-05 17:00 2.53 18.18 204 4.86 72.3 70.0 0.56 138.0
2023-08-05 16:30 2.46 16.67 202 4.86 72.3 70.0 0.60 137.0
2023-08-05 16:00 2.43 16.67 204 4.85 72.3 69.6 0.64 134.0
2023-08-05 15:30 2.56 16.67 203 5.24 72.1 69.4 0.64 132.0
2023-08-05 15:00 2.46 16.67 199 5.03 72.0 69.4 0.68 123.0
2023-08-05 14:30 2.59 16.67 188 5.21 71.8 69.1 0.66 124.0
2023-08-05 14:00 2.46 16.67 194 5.00 71.8 68.5 0.56 122.0
2023-08-05 13:30 2.46 15.38 199 5.48 71.4 68.0 0.68 108.0
2023-08-05 13:00 2.36 16.67 190 5.78 71.6 68.0 0.56 106.0
2023-08-05 12:30 2.40 16.67 192 6.16 71.6 67.8 0.64 91.0
2023-08-05 12:00 2.36 15.38 194 6.11 71.4 68.4 0.45 93.0
2023-08-05 11:30 2.26 16.67 194 6.46 70.9 68.2 0.47 96.0
2023-08-05 11:00 2.40 16.67 205 6.44 70.5 68.2 0.35 87.0
2023-08-05 10:30 2.33 16.67 208 6.33 70.9 68.5 0.16 74.0
2023-08-05 10:00 2.30 16.67 210 6.10 71.2 68.2 0.16 65.0
2023-08-05 09:30 2.33 16.67 208 6.26 71.2 68.0 0.27 61.0
2023-08-05 09:00 2.43 16.67 211 6.35 71.4 68.2 0.29 48.0
2023-08-05 08:30 2.30 16.67 211 5.85 71.4 68.0 0.35 44.0
2023-08-05 08:00 2.40 16.67 209 6.02 71.6 67.8 0.37 37.0
2023-08-05 07:30 2.46 16.67 207 5.89 71.8 67.5 0.45 34.0
2023-08-05 07:00 2.36 16.67 209 5.58 72.3 67.3 0.39 17.0
2023-08-05 06:30 2.53 18.18 210 5.61 72.5 67.1 0.23 19.0
2023-08-05 06:00 2.56 16.67 206 5.76 72.7 66.9 0.21 20.0
2023-08-05 05:30 2.62 11.76 198 5.56 72.7 67.1 0.21 342.0
2023-08-05 05:00 2.59 6.06 282 5.39 72.7 66.9 0.25 348.0
2023-08-05 04:30 2.92 16.67 214 5.88 72.7 67.3 0.23 300.0
2023-08-05 04:00 2.72 16.67 210 5.45 72.7 67.6 0.21 313.0
2023-08-05 03:30 2.72 11.76 195 5.61 72.7 67.5 0.19 310.0
2023-08-05 03:00 2.92 11.76 196 6.03 72.5 67.8 0.27 284.0
2023-08-05 02:30 2.66 18.18 214 5.55 72.3 68.0 0.25 281.0
2023-08-05 02:00 2.59 18.18 224 5.62 72.3 67.8 0.27 271.0
2023-08-05 01:30 2.59 18.18 208 5.69 72.3 68.2 0.29 278.0
2023-08-05 01:00 2.46 16.67 217 5.70 72.3 68.4 0.25 275.0
2023-08-05 00:30 2.59 18.18 212 5.61 72.1 68.4 0.19 262.0
2023-08-05 00:00 2.69 18.18 206 5.59 72.1 68.5 0.19 250.0
2023-08-04 23:30 2.53 12.50 198 5.31 72.0 68.7 0.16 257.0
2023-08-04 23:00 2.59 18.18 206 5.19 71.8 69.1 0.16 235.0
2023-08-04 22:30 2.72 18.18 210 5.11 71.6 68.5 0.19 225.0
2023-08-04 22:00 2.72 12.50 188 5.18 71.6 68.5 0.16 191.0
2023-08-04 21:30 2.56 12.50 187 4.97 71.6 68.5 0.27 195.0
2023-08-04 21:00 2.49 18.18 198 5.08 71.6 68.5 0.27 187.0
2023-08-04 20:30 2.56 12.50 187 5.35 71.4 68.7 0.27 184.0
2023-08-04 20:00 2.53 18.18 211 5.40 71.2 68.9 0.17 152.0
2023-08-04 19:30 2.62 18.18 201 5.28 71.4 69.6 0.27 162.0
2023-08-04 19:00 2.72 12.50 187 5.29 71.2 70.3 0.25 175.0
2023-08-04 18:30 2.59 12.50 187 5.34 71.2 71.1 0.17 173.0
2023-08-04 18:00 2.69 18.18 199 5.55 71.2 71.2 0.29 179.0
2023-08-04 17:30 2.76 18.18 194 5.47 71.2 70.9 0.25 147.0
2023-08-04 17:00 2.76 18.18 203 5.47 71.2 70.5 0.29 137.0
2023-08-04 16:30 2.69 18.18 195 5.23 71.2 70.2 0.33 134.0
2023-08-04 16:00 2.76 18.18 197 5.26 71.4 69.8 0.35 136.0
2023-08-04 15:30 2.99 12.50 189 5.86 71.2 69.8 0.39 132.0
2023-08-04 15:00 2.56 12.50 183 5.30 71.4 69.6 0.37 125.0
2023-08-04 14:30 2.69 6.67 272 5.64 71.8 69.1 0.43 110.0
2023-08-04 14:00 2.59 12.50 184 6.11 71.8 68.5 0.39 99.0
2023-08-04 13:30 2.56 7.41 263 6.34 71.6 68.2 0.33 89.0
2023-08-04 13:00 2.85 12.50 184 6.94 71.6 67.6 0.33 86.0
2023-08-04 12:30 2.66 18.18 193 6.94 71.8 67.5 0.37 81.0
2023-08-04 12:00 2.66 5.88 275 6.54 71.6 67.5 0.25 53.0
2023-08-04 11:30 2.76 12.50 185 6.48 71.4 67.5 0.41 49.0
2023-08-04 11:00 2.92 12.50 186 6.64 72.1 68.2 0.41 9.0
2023-08-04 10:30 2.72 12.50 192 6.31 71.8 67.5 0.37 18.0
2023-08-04 10:00 2.92 6.45 280 6.40 71.8 66.9 0.25 34.0
2023-08-04 09:30 2.79 6.67 284 6.02 72.0 66.7 0.35 17.0
2023-08-04 09:00 2.85 12.50 191 6.06 72.0 66.4 0.31 15.0
2023-08-04 08:30 3.08 6.67 276 6.12 72.0 66.4 0.29 8.0
2023-08-04 08:00 3.15 6.45 286 6.06 72.0 66.4 0.39 346.0
2023-08-04 07:30 3.22 7.14 282 5.83 72.0 66.7 0.31 343.0
2023-08-04 07:00 3.05 6.90 285 5.44 72.1 66.7 0.41 344.0
2023-08-04 06:30 3.31 7.14 286 5.63 72.3 66.4 0.47 338.0
2023-08-04 06:00 3.44 7.41 286 5.47 72.3 66.7 0.51 333.0
2023-08-04 05:30 3.67 7.14 285 5.70 72.5 66.6 0.47 327.0
2023-08-04 05:00 3.71 6.45 283 5.45 72.5 66.7 0.49 330.0
2023-08-04 04:30 3.94 7.41 287 5.74 72.5 66.9 0.45 324.0
2023-08-04 04:00 3.90 7.41 291 5.57 72.7 67.1 0.47 312.0
2023-08-04 03:30 3.81 7.14 295 5.49 73.0 67.1 0.49 312.0
2023-08-04 03:00 3.90 7.14 294 5.48 73.0 67.3 0.52 320.0
2023-08-04 02:30 4.13 7.41 292 5.84 73.0 67.8 0.37 308.0
2023-08-04 02:00 4.33 7.41 283 5.98 73.0 67.5 0.35 299.0
2023-08-04 01:30 4.10 6.90 283 6.00 73.0 67.5 0.23 284.0
2023-08-04 01:00 4.00 6.90 280 6.12 73.2 67.6 0.19 278.0
2023-08-04 00:30 3.97 7.41 276 6.17 73.2 67.8 0.33 276.0
2023-08-04 00:00 3.84 7.41 269 6.01 73.0 67.8 0.29 269.0
2023-08-03 23:30 3.77 6.67 270 6.02 72.9 67.8 0.25 250.0
2023-08-03 23:00 3.74 5.88 268 6.07 72.7 68.2 0.23 241.0
2023-08-03 22:30 3.38 6.67 265 5.69 72.5 68.2 0.21 218.0
2023-08-03 22:00 3.35 6.45 278 5.68 72.3 68.2 0.17 218.0
2023-08-03 21:30 3.41 13.33 189 5.72 72.0 68.4 0.17 188.0
2023-08-03 21:00 3.31 13.33 184 5.72 72.0 68.2 0.16 170.0
2023-08-03 20:30 3.28 7.14 267 5.58 72.0 68.2 0.16 142.0
2023-08-03 20:00 3.25 18.18 208 5.74 72.1 68.2 0.19 109.0
2023-08-03 19:30 3.12 6.67 274 5.44 72.5 69.3 0.16 115.0
2023-08-03 19:00 3.02 6.67 270 5.44 72.5 70.0 0.14 117.0
2023-08-03 18:30 2.95 13.33 188 5.56 72.7 70.3 0.27 87.0
2023-08-03 18:00 2.89 14.29 181 5.37 72.7 70.2 0.17 65.0
2023-08-03 17:30 2.99 14.29 196 5.51 72.9 70.3 0.25 63.0
2023-08-03 17:00 3.05 13.33 189 5.81 73.8 70.5 0.29 52.0
2023-08-03 16:30 2.85 13.33 186 5.80 73.9 70.9 0.37 44.0
2023-08-03 16:00 2.89 7.14 268 5.75 73.8 70.0 0.41 55.0
2023-08-03 15:30 2.99 7.41 259 5.89 74.3 70.2 0.29 44.0
2023-08-03 15:00 2.92 7.69 258 6.02 74.7 70.0 0.27 52.0
2023-08-03 14:30 2.79 14.29 189 6.27 74.7 70.0 0.31 44.0
2023-08-03 14:00 2.99 13.33 194 6.42 74.7 70.0 0.33 29.0
2023-08-03 13:30 3.08 14.29 189 6.39 74.7 69.3 0.39 29.0
2023-08-03 13:00 2.92 7.14 259 6.11 74.1 68.9 0.37 22.0
2023-08-03 12:30 3.15 7.41 260 6.27 74.1 68.5 0.39 24.0
2023-08-03 12:00 3.08 6.45 274 6.08 74.1 68.5 0.43 21.0
2023-08-03 11:30 2.95 14.29 186 5.93 73.9 68.9 0.43 13.0
2023-08-03 11:00 3.31 6.45 277 6.43 73.9 68.7 0.33 17.0
2023-08-03 10:30 3.05 14.29 195 6.20 73.9 69.3 0.33 6.0
2023-08-03 10:00 3.22 6.67 280 6.09 73.2 70.3 0.31 360.0
2023-08-03 09:30 3.48 6.45 280 6.09 72.7 69.4 0.33 351.0
2023-08-03 09:00 3.31 6.90 283 5.98 72.5 69.1 0.35 353.0
2023-08-03 08:30 3.54 7.14 279 5.97 72.5 69.1 0.35 344.0
2023-08-03 08:00 3.81 7.14 281 5.98 72.5 68.5 0.35 343.0
2023-08-03 07:30 3.61 7.14 279 5.79 72.5 67.3 0.41 340.0
2023-08-03 07:00 3.58 6.90 282 5.68 72.5 67.6 0.43 330.0
2023-08-03 06:30 3.61 6.67 278 5.91 72.5 68.0 0.43 323.0
2023-08-03 06:00 3.58 7.14 279 5.98 72.5 68.2 0.49 308.0
2023-08-03 05:30 3.84 6.90 272 6.24 72.5 68.2 0.54 311.0
2023-08-03 05:00 3.74 6.90 274 6.09 72.5 68.2 0.54 310.0
2023-08-03 04:30 3.64 7.41 268 6.19 72.1 68.0 0.58 311.0
2023-08-03 04:00 4.04 6.90 275 6.30 72.1 68.0 0.58 304.0
2023-08-03 03:30 3.94 6.90 279 6.22 72.5 67.8 0.47 295.0
2023-08-03 03:00 3.87 7.14 269 5.91 72.5 68.0 0.41 285.0
2023-08-03 02:30 3.90 7.14 262 6.03 72.5 68.0 0.41 284.0
2023-08-03 02:00 4.04 6.45 267 5.94 72.3 68.4 0.35 286.0
2023-08-03 01:30 3.61 7.14 260 5.79 72.0 68.7 0.33 276.0
2023-08-03 01:00 3.64 7.41 264 5.69 71.8 68.4 0.29 285.0
2023-08-03 00:30 3.77 14.29 190 5.84 71.6 68.4 0.27 278.0
2023-08-03 00:00 3.87 14.29 190 5.63 71.6 68.7 0.27 268.0
2023-08-02 23:30 3.61 14.29 200 5.38 71.8 69.1 0.27 253.0
2023-08-02 23:00 3.64 14.29 198 5.46 71.4 69.1 0.35 233.0
2023-08-02 22:30 3.41 14.29 193 5.42 71.4 68.9 0.21 243.0
2023-08-02 22:00 3.58 14.29 191 5.31 71.4 68.7 0.27 248.0
2023-08-02 21:30 3.54 14.29 190 5.25 71.6 69.1 0.23 225.0
2023-08-02 21:00 3.67 15.38 192 5.25 71.8 69.4 0.33 200.0
2023-08-02 20:30 3.71 15.38 192 5.24 71.8 69.6 0.19 199.0
2023-08-02 20:00 3.41 15.38 189 5.02 71.8 69.4 0.17 184.0
2023-08-02 19:30 3.44 14.29 194 5.38 71.8 70.0 0.25 181.0
2023-08-02 19:00 3.25 14.29 190 5.05 71.8 70.5 0.19 187.0
2023-08-02 18:30 2.89 15.38 192 4.71 72.1 70.9 0.25 172.0
2023-08-02 18:00 2.95 15.38 188 5.12 72.3 71.1 0.23 158.0
2023-08-02 17:30 3.02 14.29 195 5.59 72.3 71.6 0.23 155.0
2023-08-02 17:00 2.92 15.38 196 5.17 72.3 71.6 0.17 144.0
2023-08-02 16:30 2.99 15.38 188 5.77 72.3 71.2 0.14 108.0
2023-08-02 16:00 2.92 14.29 194 5.58 72.3 71.1 0.12 90.0
2023-08-02 15:30 2.95 6.06 260 5.60 72.1 71.2 0.14 74.0
2023-08-02 15:00 2.89 6.06 255 5.63 72.3 71.2 0.17 62.0
2023-08-02 14:30 3.12 15.38 187 6.14 72.7 71.1 0.19 58.0
2023-08-02 14:00 3.08 20.00 201 6.55 73.2 70.7 0.12 65.0
2023-08-02 13:30 3.15 15.38 191 6.46 73.2 70.3 0.16 67.0
2023-08-02 13:00 3.18 7.14 255 6.51 72.5 70.2 0.29 32.0
2023-08-02 12:30 3.08 6.45 255 6.44 72.7 69.8 0.35 31.0
2023-08-02 12:00 3.51 6.06 263 6.37 72.7 70.0 0.29 25.0
2023-08-02 11:30 3.31 7.14 261 6.30 73.2 70.3 0.43 356.0
2023-08-02 11:00 3.38 15.38 202 6.65 72.9 70.5 0.47 0.0
2023-08-02 10:30 3.35 6.67 270 6.58 72.9 70.7 0.60 2.0
2023-08-02 10:00 3.58 15.38 192 6.68 72.9 71.8 0.52 359.0
2023-08-02 09:30 3.48 6.45 268 6.24 72.3 71.4 0.60 2.0
2023-08-02 09:00 3.48 15.38 199 6.60 72.1 70.5 0.52 353.0
2023-08-02 08:30 3.31 15.38 193 6.38 72.3 70.5 0.47 3.0
2023-08-02 08:00 3.51 6.45 268 6.32 72.3 70.3 0.52 356.0
2023-08-02 07:30 3.44 6.06 269 6.44 72.5 70.0 0.52 353.0
2023-08-02 07:00 3.35 6.67 267 6.30 72.1 70.0 0.51 347.0
2023-08-02 06:30 3.41 15.38 201 6.66 72.1 69.8 0.43 343.0
2023-08-02 06:00 3.28 12.50 194 6.66 72.1 69.8 0.45 340.0
2023-08-02 05:30 3.41 7.14 260 6.84 72.3 69.8 0.45 340.0
2023-08-02 05:00 3.12 15.38 206 6.45 72.5 69.6 0.47 341.0
2023-08-02 04:30 3.18 12.50 192 6.43 72.5 69.8 0.45 341.0
2023-08-02 04:00 3.02 12.50 192 6.65 72.9 69.4 0.37 340.0
2023-08-02 03:30 2.85 15.38 195 6.67 73.0 69.3 0.33 330.0
2023-08-02 03:00 2.69 12.50 196 6.67 73.2 69.4 0.31 341.0
2023-08-02 02:30 2.53 15.38 196 6.52 73.2 69.6 0.27 332.0
2023-08-02 02:00 2.59 15.38 195 6.27 73.0 69.8 0.27 326.0
2023-08-02 01:30 2.66 13.33 195 6.26 73.0 69.6 0.27 306.0
2023-08-02 01:00 2.89 12.50 194 6.51 72.9 69.8 0.31 308.0
2023-08-02 00:30 2.95 12.50 193 6.29 72.9 70.2 0.39 287.0
2023-08-02 00:00 3.15 15.38 192 6.04 73.0 70.3 0.41 278.0
2023-08-01 23:30 3.22 12.50 188 6.27 73.0 70.5 0.45 261.0
2023-08-01 23:00 3.12 11.76 190 6.15 73.0 70.7 0.39 265.0
2023-08-01 22:30 3.02 15.38 196 6.14 72.7 70.5 0.33 266.0
2023-08-01 22:00 2.95 12.50 191 6.21 72.9 70.3 0.37 245.0
2023-08-01 21:30 2.82 12.50 195 6.10 72.9 70.5 0.37 230.0
2023-08-01 21:00 2.79 13.33 189 6.38 73.0 70.7 0.37 222.0
2023-08-01 20:30 2.72 12.50 193 6.89 73.0 70.5 0.27 221.0
2023-08-01 20:00 3.02 12.50 197 7.62 72.9 70.3 0.31 215.0
2023-08-01 19:30 2.82 12.50 193 7.17 72.9 70.3 0.27 209.0
2023-08-01 19:00 2.59 12.50 191 6.96 72.7 70.7 0.31 207.0
2023-08-01 18:30 2.46 12.50 190 6.31 72.7 71.1 0.21 195.0
2023-08-01 18:00 2.56 13.33 193 6.94 72.7 71.8 0.25 184.0
2023-08-01 17:30 2.56 13.33 197 7.24 72.7 70.9 0.21 173.0
2023-08-01 17:00 2.40 13.33 189 6.88 72.9 71.6 0.19 173.0
2023-08-01 16:30 2.79 13.33 190 7.43 73.0 72.0 0.29 177.0
2023-08-01 16:00 2.59 13.33 191 7.06 72.9 72.9 0.23 166.0
2023-08-01 15:30 2.53 12.50 191 6.83 72.9 72.7 0.25 164.0
2023-08-01 15:00 2.49 13.33 186 6.87 72.7 72.3 0.31 147.0
2023-08-01 14:30 2.53 13.33 187 6.92 73.0 72.5 0.31 120.0
2023-08-01 14:00 2.69 12.50 194 7.42 72.7 72.5 0.27 86.0
2023-08-01 13:30 2.56 13.33 193 6.77 72.5 72.1 0.16 78.0
2023-08-01 13:00 2.95 13.33 189 7.86 72.5 72.0 0.14 75.0
2023-08-01 12:30 2.72 13.33 186 7.38 72.3 71.6 0.17 66.0
2023-08-01 12:00 2.59 13.33 193 7.21 72.5 71.2 0.14 17.0
2023-08-01 11:30 2.72 13.33 187 7.45 72.7 71.2 0.17 12.0
2023-08-01 11:00 2.72 13.33 193 7.62 71.8 71.2 0.17 8.0
2023-08-01 10:30 2.62 13.33 192 7.50 71.4 71.1 0.17 2.0
2023-08-01 10:00 2.49 12.50 194 8.09 70.9 70.3 0.23 14.0
2023-08-01 09:30 2.72 12.50 188 8.21 70.9 70.3 0.12 358.0
2023-08-01 09:00 2.69 12.50 192 8.15 70.9 70.3 0.14 357.0
2023-08-01 08:30 2.46 13.33 199 7.71 70.9 70.0 0.06 313.0
2023-08-01 08:00 2.53 13.33 194 7.84 70.9 70.0 0.06 249.0
2023-08-01 07:30 2.53 12.50 195 8.01 70.9 70.3 0.14 341.0
2023-08-01 07:00 2.72 12.50 194 8.47 70.9 70.5 0.14 328.0
2023-08-01 06:30 2.56 13.33 202 8.14 70.9 70.3 0.19 326.0
2023-08-01 06:00 2.43 12.50 197 7.67 70.9 70.2 0.21 327.0
2023-08-01 05:30 2.59 12.50 195 8.43 70.9 70.2 0.29 330.0
2023-08-01 05:00 2.36 13.33 196 8.10 70.9 70.0 0.17 325.0
2023-08-01 04:30 2.36 13.33 196 7.76 70.9 70.0 0.23 310.0
2023-08-01 04:00 2.33 13.33 196 7.97 70.9 70.3 0.21 288.0
2023-08-01 03:30 2.36 13.33 200 8.25 70.9 70.3 0.29 287.0
2023-08-01 03:00 2.33 13.33 200 7.91 70.9 70.3 0.21 288.0
2023-08-01 02:30 2.49 13.33 205 8.42 70.9 70.3 0.23 258.0
2023-08-01 02:00 2.46 13.33 194 8.52 70.7 70.3 0.17 253.0
2023-08-01 01:30 2.36 12.50 196 8.20 70.7 70.3 0.19 268.0
2023-08-01 01:00 2.43 12.50 200 8.15 70.7 70.5 0.21 260.0
2023-08-01 00:30 2.43 13.33 198 8.32 70.7 70.3 0.23 233.0
2023-08-01 00:00 2.40 13.33 200 7.85 70.7 70.3 0.27 223.0
2023-07-31 23:30 2.69 13.33 198 8.65 70.9 70.2 0.27 190.0
2023-07-31 23:00 2.69 13.33 194 8.46 70.9 70.2 0.25 187.0
2023-07-31 22:30 2.53 13.33 195 8.01 70.9 70.0 0.37 188.0
2023-07-31 22:00 2.33 13.33 188 7.39 70.9 70.0 0.39 181.0
2023-07-31 21:30 2.66 13.33 191 8.56 70.7 70.0 0.27 164.0
2023-07-31 21:00 2.49 13.33 192 8.06 70.5 70.0 0.33 164.0
2023-07-31 20:30 2.56 13.33 189 8.30 70.5 70.0 0.25 125.0
2023-07-31 20:00 2.59 13.33 187 8.27 70.5 69.6 0.29 134.0
2023-07-31 19:30 2.76 14.29 183 8.31 70.5 70.2 0.43 141.0
2023-07-31 19:00 2.33 13.33 184 7.51 70.7 70.0 0.51 124.0
2023-07-31 18:30 2.40 13.33 182 7.83 70.5 70.3 0.49 122.0
2023-07-31 18:00 2.36 13.33 186 7.51 70.5 71.1 0.45 115.0
2023-07-31 17:30 2.30 13.33 185 7.17 70.5 71.2 0.45 106.0
2023-07-31 17:00 2.36 13.33 189 7.39 70.5 70.3 0.39 106.0